Observation data for Canadian on 06/26/2019      Previous  Date  Next       Current Mesonet Observations  Soil Data  Daily Summary Page  Observations in Plain Language
KCA1 260500Z 17009KT 25/10 A2994 RMK A01 T02460101  RH  040%=      5-min Rain = 0
KCA1 260501Z 17009KT 24/10 A2995 RMK A01 T02440102  RH  040%=      5-min Rain = 0
KCA1 260502Z 17010KT 24/10 A2994 RMK A01 T02430101  RH  041%=      5-min Rain = 0
KCA1 260503Z 17010KT 24/10 A2994 RMK A01 T02430101  RH  041%=      5-min Rain = 0
KCA1 260504Z 16010KT 24/10 A2994 RMK A01 T02430101  RH  041%=      5-min Rain = 0
KCA1 260505Z 16010KT 24/10 A2994 RMK A01 T02420101  RH  041%=      5-min Rain = 0
KCA1 260506Z 17010G15KT 24/10 A2994 RMK A01 T02420101  RH  041%=      5-min Rain = 0
KCA1 260507Z 17011KT 24/10 A2994 RMK A01 T02420102  RH  041%=      5-min Rain = 0
KCA1 260508Z 17011KT 24/10 A2994 RMK A01 T02420102  RH  041%=      5-min Rain = 0
KCA1 260509Z 17009KT 24/10 A2995 RMK A01 T02420102  RH  041%=      5-min Rain = 0
KCA1 260510Z 17012KT 24/10 A2995 RMK A01 T02420103  RH  041%=      5-min Rain = 0
KCA1 260511Z 17011KT 24/10 A2995 RMK A01 T02410102  RH  041%=      5-min Rain = 0
KCA1 260512Z 16009KT 24/10 A2995 RMK A01 T02410103  RH  042%=      5-min Rain = 0
KCA1 260513Z 16011KT 24/10 A2995 RMK A01 T02400103  RH  042%=      5-min Rain = 0
KCA1 260514Z 16007KT 24/10 A2995 RMK A01 T02400103  RH  042%=      5-min Rain = 0
KCA1 260515Z 15007KT 24/10 A2995 RMK A01 T02390104  RH  043%=      5-min Rain = 0
KCA1 260516Z 14008KT 24/10 A2995 RMK A01 T02370104  RH  043%=      5-min Rain = 0
KCA1 260517Z 14008KT 24/10 A2995 RMK A01 T02360104  RH  043%=      5-min Rain = 0
KCA1 260518Z 13008KT 24/10 A2995 RMK A01 T02350104  RH  044%=      5-min Rain = 0
KCA1 260519Z 14007KT 23/10 A2995 RMK A01 T02340104  RH  044%=      5-min Rain = 0
KCA1 260520Z 13007KT 23/11 A2995 RMK A01 T02340105  RH  044%=      5-min Rain = 0
KCA1 260521Z 14007KT 23/11 A2995 RMK A01 T02340105  RH  044%=      5-min Rain = 0
KCA1 260522Z 14006KT 23/11 A2995 RMK A01 T02340105  RH  044%=      5-min Rain = 0
KCA1 260523Z 14006KT 23/11 A2995 RMK A01 T02330105  RH  044%=      5-min Rain = 0
KCA1 260524Z 14005KT 23/11 A2995 RMK A01 T02330105  RH  045%=      5-min Rain = 0
KCA1 260525Z 13004KT 23/11 A2995 RMK A01 T02320106  RH  045%=      5-min Rain = 0
KCA1 260526Z 12004KT 23/11 A2995 RMK A01 T02310106  RH  045%=      5-min Rain = 0
KCA1 260527Z 15005KT 23/11 A2995 RMK A01 T02300106  RH  045%=      5-min Rain = 0
KCA1 260528Z 13005KT 23/11 A2995 RMK A01 T02300106  RH  045%=      5-min Rain = 0
KCA1 260529Z 12004KT 23/11 A2995 RMK A01 T02300107  RH  046%=      5-min Rain = 0
KCA1 260530Z 12004KT 23/11 A2995 RMK A01 T02290106  RH  046%=      5-min Rain = 0
KCA1 260531Z 13005KT 23/11 A2995 RMK A01 T02290106  RH  046%=      5-min Rain = 0
KCA1 260532Z 10005KT 23/11 A2995 RMK A01 T02290107  RH  046%=      5-min Rain = 0
KCA1 260533Z 12006KT 23/11 A2995 RMK A01 T02280108  RH  046%=      5-min Rain = 0
KCA1 260534Z 13006KT 23/11 A2995 RMK A01 T02270107  RH  046%=      5-min Rain = 0
KCA1 260535Z 12005KT 23/11 A2995 RMK A01 T02280106  RH  046%=      5-min Rain = 0
KCA1 260536Z 09004KT 23/11 A2995 RMK A01 T02280107  RH  046%=      5-min Rain = 0
KCA1 260537Z 12005KT 23/11 A2995 RMK A01 T02270108  RH  047%=      5-min Rain = 0
KCA1 260538Z 15006KT 23/11 A2995 RMK A01 T02260107  RH  047%=      5-min Rain = 0
KCA1 260539Z 15005KT 23/11 A2995 RMK A01 T02260106  RH  047%=      5-min Rain = 0
KCA1 260540Z 17006KT 23/11 A2996 RMK A01 T02270107  RH  046%=      5-min Rain = 0
KCA1 260541Z 14004KT 23/11 A2996 RMK A01 T02280107  RH  046%=      5-min Rain = 0
KCA1 260542Z 11003KT 23/11 A2996 RMK A01 T02280106  RH  046%=      5-min Rain = 0
KCA1 260543Z 14004KT 23/11 A2996 RMK A01 T02290107  RH  046%=      5-min Rain = 0
KCA1 260544Z 13003KT 23/11 A2996 RMK A01 T02290107  RH  046%=      5-min Rain = 0
KCA1 260545Z 13004KT 23/11 A2996 RMK A01 T02290108  RH  046%=      5-min Rain = 0
KCA1 260546Z 14006KT 23/11 A2996 RMK A01 T02290109  RH  047%=      5-min Rain = 0
KCA1 260547Z 15006KT 23/11 A2995 RMK A01 T02280108  RH  047%=      5-min Rain = 0
KCA1 260548Z 17006KT 23/11 A2995 RMK A01 T02280108  RH  047%=      5-min Rain = 0
KCA1 260549Z 18007KT 23/11 A2995 RMK A01 T02280107  RH  047%=      5-min Rain = 0
KCA1 260550Z 17004KT 23/11 A2995 RMK A01 T02290107  RH  046%=      5-min Rain = 0
KCA1 260551Z 16003KT 23/11 A2995 RMK A01 T02290108  RH  046%=      5-min Rain = 0
KCA1 260552Z 15003KT 23/11 A2995 RMK A01 T02290109  RH  047%=      5-min Rain = 0
KCA1 260553Z 18004KT 23/11 A2995 RMK A01 T02270109  RH  047%=      5-min Rain = 0
KCA1 260554Z 17004KT 23/11 A2995 RMK A01 T02260109  RH  048%=      5-min Rain = 0
KCA1 260555Z 17005KT 23/11 A2996 RMK A01 T02250108  RH  048%=      5-min Rain = 0
KCA1 260556Z 18008KT 22/11 A2996 RMK A01 T02240109  RH  048%=      5-min Rain = 0
KCA1 260557Z 18006KT 22/11 A2996 RMK A01 T02240107  RH  047%=      5-min Rain = 0
KCA1 260558Z 19007KT 23/11 A2996 RMK A01 T02250107  RH  047%=      5-min Rain = 0
KCA1 260559Z 20005KT 23/11 A2996 RMK A01 T02270106  RH  046%=      5-min Rain = 0
KCA1 260600Z 18004KT 23/11 A2996 RMK A01 T02290108  RH  046%=      5-min Rain = 0
KCA1 260601Z 17004KT 23/11 A2996 RMK A01 T02280108  RH  047%=      5-min Rain = 0
KCA1 260602Z 17006KT 23/11 A2995 RMK A01 T02270108  RH  047%=      5-min Rain = 0
KCA1 260603Z 16006KT 23/11 A2995 RMK A01 T02270108  RH  047%=      5-min Rain = 0
KCA1 260604Z 16007KT 23/11 A2995 RMK A01 T02270107  RH  047%=      5-min Rain = 0
KCA1 260605Z 17007KT 23/11 A2995 RMK A01 T02270107  RH  047%=      5-min Rain = 0
KCA1 260606Z 15006KT 23/11 A2995 RMK A01 T02260107  RH  047%=      5-min Rain = 0
KCA1 260607Z 15006KT 23/11 A2995 RMK A01 T02270107  RH  047%=      5-min Rain = 0
KCA1 260608Z 16007KT 23/11 A2995 RMK A01 T02260108  RH  047%=      5-min Rain = 0
KCA1 260609Z 16008KT 23/11 A2995 RMK A01 T02260108  RH  047%=      5-min Rain = 0
KCA1 260610Z 16008KT 22/11 A2995 RMK A01 T02240108  RH  048%=      5-min Rain = 0
KCA1 260611Z 17008KT 22/11 A2995 RMK A01 T02240107  RH  048%=      5-min Rain = 0
KCA1 260612Z 18007KT 22/11 A2995 RMK A01 T02240106  RH  047%=      5-min Rain = 0
KCA1 260613Z 17006KT 23/11 A2995 RMK A01 T02260107  RH  047%=      5-min Rain = 0
KCA1 260614Z 16005KT 23/11 A2995 RMK A01 T02250107  RH  047%=      5-min Rain = 0
KCA1 260615Z 16005KT 23/11 A2995 RMK A01 T02250108  RH  047%=      5-min Rain = 0
KCA1 260616Z 16006KT 22/11 A2995 RMK A01 T02240108  RH  048%=      5-min Rain = 0
KCA1 260617Z 16005KT 22/11 A2995 RMK A01 T02230108  RH  048%=      5-min Rain = 0
KCA1 260618Z 16004KT 22/11 A2995 RMK A01 T02230107  RH  048%=      5-min Rain = 0
KCA1 260619Z 17004KT 22/11 A2995 RMK A01 T02220107  RH  048%=      5-min Rain = 0
KCA1 260620Z 18003KT 22/11 A2995 RMK A01 T02220107  RH  048%=      5-min Rain = 0
KCA1 260621Z 15003KT 22/11 A2995 RMK A01 T02220107  RH  048%=      5-min Rain = 0
KCA1 260622Z 15001KT 22/11 A2995 RMK A01 T02220107  RH  048%=      5-min Rain = 0
KCA1 260623Z 19001KT 22/11 A2995 RMK A01 T02220107  RH  048%=      5-min Rain = 0
KCA1 260624Z 19000KT 22/11 A2995 RMK A01 T02220107  RH  048%=      5-min Rain = 0
KCA1 260625Z 19000KT 22/11 A2995 RMK A01 T02220107  RH  048%=      5-min Rain = 0
KCA1 260626Z 00000KT 22/11 A2996 RMK A01 T02210108  RH  049%=      5-min Rain = 0
KCA1 260627Z 04000KT 22/11 A2995 RMK A01 T02210108  RH  049%=      5-min Rain = 0
KCA1 260628Z 04000KT 22/11 A2995 RMK A01 T02200107  RH  049%=      5-min Rain = 0
KCA1 260629Z 00000KT 22/11 A2996 RMK A01 T02190107  RH  049%=      5-min Rain = 0
KCA1 260630Z 00000KT 22/11 A2996 RMK A01 T02190107  RH  049%=      5-min Rain = 0
KCA1 260631Z 28001KT 22/11 A2996 RMK A01 T02190107  RH  049%=      5-min Rain = 0
KCA1 260632Z 17001KT 22/11 A2996 RMK A01 T02190107  RH  049%=      5-min Rain = 0
KCA1 260633Z 18003KT 22/11 A2996 RMK A01 T02190106  RH  049%=      5-min Rain = 0
KCA1 260634Z 19004KT 22/11 A2996 RMK A01 T02210105  RH  048%=      5-min Rain = 0
KCA1 260635Z 18004KT 22/11 A2996 RMK A01 T02220106  RH  047%=      5-min Rain = 0
KCA1 260636Z 19003KT 22/11 A2996 RMK A01 T02230106  RH  047%=      5-min Rain = 0
KCA1 260637Z 17005KT 22/11 A2996 RMK A01 T02230107  RH  048%=      5-min Rain = 0
KCA1 260638Z 18004KT 22/11 A2996 RMK A01 T02230107  RH  048%=      5-min Rain = 0
KCA1 260639Z 18005KT 22/11 A2996 RMK A01 T02220107  RH  048%=      5-min Rain = 0
KCA1 260640Z 19005KT 22/11 A2996 RMK A01 T02210108  RH  048%=      5-min Rain = 0
KCA1 260641Z 18003KT 22/11 A2996 RMK A01 T02200108  RH  049%=      5-min Rain = 0
KCA1 260642Z 20003KT 22/11 A2996 RMK A01 T02190108  RH  049%=      5-min Rain = 0
KCA1 260643Z 21003KT 22/11 A2996 RMK A01 T02180108  RH  050%=      5-min Rain = 0
KCA1 260644Z 21004KT 22/11 A2996 RMK A01 T02170108  RH  050%=      5-min Rain = 0
KCA1 260645Z 21003KT 22/11 A2996 RMK A01 T02160107  RH  050%=      5-min Rain = 0
KCA1 260646Z 20004KT 22/11 A2996 RMK A01 T02170107  RH  050%=      5-min Rain = 0
KCA1 260647Z 19004KT 22/11 A2996 RMK A01 T02160106  RH  050%=      5-min Rain = 0
KCA1 260648Z 18002KT 22/11 A2996 RMK A01 T02170106  RH  049%=      5-min Rain = 0
KCA1 260649Z 17004KT 22/11 A2996 RMK A01 T02180107  RH  049%=      5-min Rain = 0
KCA1 260650Z 17004KT 22/11 A2995 RMK A01 T02180106  RH  049%=      5-min Rain = 0
KCA1 260651Z 16005KT 22/11 A2995 RMK A01 T02180106  RH  049%=      5-min Rain = 0
KCA1 260652Z 16006KT 22/11 A2995 RMK A01 T02190108  RH  049%=      5-min Rain = 0
KCA1 260653Z 17005KT 22/11 A2995 RMK A01 T02170107  RH  050%=      5-min Rain = 0
KCA1 260654Z 17003KT 22/11 A2996 RMK A01 T02170106  RH  049%=      5-min Rain = 0
KCA1 260655Z 15003KT 22/11 A2996 RMK A01 T02170106  RH  049%=      5-min Rain = 0
KCA1 260656Z 17003KT 22/11 A2996 RMK A01 T02180106  RH  049%=      5-min Rain = 0
KCA1 260657Z 22002KT 22/11 A2996 RMK A01 T02180107  RH  049%=      5-min Rain = 0
KCA1 260658Z 26002KT 22/11 A2996 RMK A01 T02170106  RH  049%=      5-min Rain = 0
KCA1 260659Z 27003KT 22/11 A2996 RMK A01 T02170107  RH  050%=      5-min Rain = 0
KCA1 260700Z 28004KT 22/11 A2996 RMK A01 T02170107  RH  050%=      5-min Rain = 0
KCA1 260701Z 29002KT 22/11 A2996 RMK A01 T02160107  RH  050%=      5-min Rain = 0
KCA1 260702Z 23001KT 22/11 A2996 RMK A01 T02150107  RH  050%=      5-min Rain = 0
KCA1 260703Z 18001KT 22/11 A2996 RMK A01 T02150107  RH  050%=      5-min Rain = 0
KCA1 260704Z 18001KT 21/11 A2996 RMK A01 T02140107  RH  050%=      5-min Rain = 0
KCA1 260705Z 00000KT 21/11 A2996 RMK A01 T02140109  RH  051%=      5-min Rain = 0
KCA1 260706Z 24001KT 21/11 A2997 RMK A01 T02120107  RH  051%=      5-min Rain = 0
KCA1 260707Z 19002KT 21/11 A2997 RMK A01 T02120107  RH  051%=      5-min Rain = 0
KCA1 260708Z 18003KT 21/11 A2997 RMK A01 T02110106  RH  051%=      5-min Rain = 0
KCA1 260709Z 22002KT 21/11 A2997 RMK A01 T02140105  RH  050%=      5-min Rain = 0
KCA1 260710Z 24004KT 22/11 A2997 RMK A01 T02150107  RH  050%=      5-min Rain = 0
KCA1 260711Z 24004KT 21/11 A2997 RMK A01 T02140108  RH  051%=      5-min Rain = 0
KCA1 260712Z 23004KT 21/11 A2997 RMK A01 T02120108  RH  052%=      5-min Rain = 0
KCA1 260713Z 19004KT 21/11 A2997 RMK A01 T02100108  RH  052%=      5-min Rain = 0
KCA1 260714Z 18004KT 21/11 A2997 RMK A01 T02080108  RH  053%=      5-min Rain = 0
KCA1 260715Z 17005KT 21/11 A2997 RMK A01 T02080108  RH  053%=      5-min Rain = 0
KCA1 260716Z 16007KT 21/11 A2998 RMK A01 T02070109  RH  053%=      5-min Rain = 0
KCA1 260717Z 16006KT 21/11 A2998 RMK A01 T02050110  RH  054%=      5-min Rain = 0
KCA1 260718Z 16005KT 20/11 A2997 RMK A01 T02040110  RH  055%=      5-min Rain = 0
KCA1 260719Z 17004KT 20/11 A2997 RMK A01 T02030110  RH  055%=      5-min Rain = 0
KCA1 260720Z 18004KT 20/11 A2998 RMK A01 T02020108  RH  055%=      5-min Rain = 0
KCA1 260721Z 18003KT 20/11 A2998 RMK A01 T02030108  RH  054%=      5-min Rain = 0
KCA1 260722Z 18004KT 20/11 A2998 RMK A01 T02040108  RH  054%=      5-min Rain = 0
KCA1 260723Z 18005KT 21/11 A2998 RMK A01 T02060107  RH  053%=      5-min Rain = 0
KCA1 260724Z 18006KT 21/11 A2998 RMK A01 T02070108  RH  053%=      5-min Rain = 0
KCA1 260725Z 17005KT 21/11 A2998 RMK A01 T02080109  RH  053%=      5-min Rain = 0
KCA1 260726Z 18006KT 21/11 A2998 RMK A01 T02080109  RH  053%=      5-min Rain = 0
KCA1 260727Z 18005KT 21/11 A2998 RMK A01 T02090107  RH  052%=      5-min Rain = 0
KCA1 260728Z 18004KT 21/11 A2998 RMK A01 T02120108  RH  052%=      5-min Rain = 0
KCA1 260729Z 20004KT 21/11 A2998 RMK A01 T02120110  RH  052%=      5-min Rain = 0
KCA1 260730Z 20005KT 21/11 A2998 RMK A01 T02110110  RH  052%=      5-min Rain = 0
KCA1 260731Z 20004KT 21/11 A2998 RMK A01 T02090110  RH  053%=      5-min Rain = 0
KCA1 260732Z 18005KT 21/11 A2998 RMK A01 T02070109  RH  053%=      5-min Rain = 0
KCA1 260733Z 16005KT 21/11 A2999 RMK A01 T02070110  RH  054%=      5-min Rain = 0
KCA1 260734Z 17004KT 21/11 A2999 RMK A01 T02060109  RH  054%=      5-min Rain = 0
KCA1 260735Z 17004KT 21/11 A2999 RMK A01 T02060109  RH  054%=      5-min Rain = 0
KCA1 260736Z 16004KT 21/11 A2999 RMK A01 T02060109  RH  054%=      5-min Rain = 0
KCA1 260737Z 18005KT 21/11 A2999 RMK A01 T02050110  RH  054%=      5-min Rain = 0
KCA1 260738Z 18005KT 21/11 A2999 RMK A01 T02050108  RH  054%=      5-min Rain = 0
KCA1 260739Z 20004KT 21/11 A2999 RMK A01 T02060109  RH  053%=      5-min Rain = 0
KCA1 260740Z 18005KT 21/11 A2999 RMK A01 T02080109  RH  053%=      5-min Rain = 0
KCA1 260741Z 18005KT 21/11 A2999 RMK A01 T02080108  RH  053%=      5-min Rain = 0
KCA1 260742Z 18005KT 21/11 A2999 RMK A01 T02090109  RH  053%=      5-min Rain = 0
KCA1 260743Z 18005KT 21/11 A2999 RMK A01 T02090109  RH  053%=      5-min Rain = 0
KCA1 260744Z 18005KT 21/11 A2999 RMK A01 T02090109  RH  053%=      5-min Rain = 0
KCA1 260745Z 18005KT 21/11 A2999 RMK A01 T02100110  RH  053%=      5-min Rain = 0
KCA1 260746Z 18005KT 21/11 A2999 RMK A01 T02090110  RH  053%=      5-min Rain = 0
KCA1 260747Z 18006KT 21/11 A2999 RMK A01 T02090110  RH  053%=      5-min Rain = 0
KCA1 260748Z 17005KT 21/11 A2999 RMK A01 T02090111  RH  053%=      5-min Rain = 0
KCA1 260749Z 18005KT 21/11 A2999 RMK A01 T02080110  RH  053%=      5-min Rain = 0
KCA1 260750Z 18006KT 21/11 A2999 RMK A01 T02080111  RH  054%=      5-min Rain = 0
KCA1 260751Z 18006KT 21/11 A30 RMK A01 T02070111  RH  054%=      5-min Rain = 0
KCA1 260752Z 17005KT 21/11 A2999 RMK A01 T02070111  RH  054%=      5-min Rain = 0
KCA1 260753Z 17006KT 21/11 A2999 RMK A01 T02070111  RH  054%=      5-min Rain = 0
KCA1 260754Z 17004KT 21/11 A2999 RMK A01 T02070112  RH  054%=      5-min Rain = 0
KCA1 260755Z 17005KT 21/11 A30 RMK A01 T02060112  RH  055%=      5-min Rain = 0
KCA1 260756Z 17005KT 21/11 A30 RMK A01 T02050111  RH  055%=      5-min Rain = 0
KCA1 260757Z 16005KT 20/11 A30 RMK A01 T02040111  RH  055%=      5-min Rain = 0
KCA1 260758Z 15004KT 20/11 A30 RMK A01 T02040112  RH  055%=      5-min Rain = 0
KCA1 260759Z 16007KT 20/11 A30 RMK A01 T02040112  RH  056%=      5-min Rain = 0
KCA1 260800Z 17006KT 20/11 A30 RMK A01 T02030111  RH  056%=      5-min Rain = 0
KCA1 260801Z 17004KT 20/11 A30 RMK A01 T02040111  RH  055%=      5-min Rain = 0
KCA1 260802Z 17006KT 21/11 A30 RMK A01 T02060112  RH  055%=      5-min Rain = 0
KCA1 260803Z 16006KT 21/11 A30 RMK A01 T02060112  RH  055%=      5-min Rain = 0
KCA1 260804Z 18007KT 21/11 A30 RMK A01 T02070113  RH  055%=      5-min Rain = 0
KCA1 260805Z 18006KT 21/11 A30 RMK A01 T02090113  RH  054%=      5-min Rain = 0
KCA1 260806Z 18005KT 21/11 A30 RMK A01 T02100113  RH  054%=      5-min Rain = 0
KCA1 260807Z 18004KT 21/11 A30 RMK A01 T02100114  RH  054%=      5-min Rain = 0
KCA1 260808Z 17004KT 21/11 A30 RMK A01 T02100113  RH  054%=      5-min Rain = 0
KCA1 260809Z 18004KT 21/11 A30 RMK A01 T02100113  RH  054%=      5-min Rain = 0
KCA1 260810Z 19004KT 21/11 A30 RMK A01 T02090112  RH  054%=      5-min Rain = 0
KCA1 260811Z 16003KT 21/11 A30 RMK A01 T02090111  RH  054%=      5-min Rain = 0
KCA1 260812Z 18004KT 21/11 A30 RMK A01 T02100112  RH  053%=      5-min Rain = 0
KCA1 260813Z 19006KT 21/11 A30 RMK A01 T02100112  RH  053%=      5-min Rain = 0
KCA1 260814Z 17004KT 21/11 A30 RMK A01 T02120113  RH  053%=      5-min Rain = 0
KCA1 260815Z 18004KT 21/11 A30 RMK A01 T02130113  RH  053%=      5-min Rain = 0
KCA1 260816Z 18004KT 21/11 A30 RMK A01 T02130113  RH  053%=      5-min Rain = 0
KCA1 260817Z 19004KT 21/11 A30 RMK A01 T02130114  RH  053%=      5-min Rain = 0
KCA1 260818Z 19005KT 21/11 A30 RMK A01 T02130114  RH  053%=      5-min Rain = 0
KCA1 260819Z 19005KT 21/11 A30 RMK A01 T02130114  RH  053%=      5-min Rain = 0
KCA1 260820Z 18004KT 21/11 A30 RMK A01 T02130113  RH  053%=      5-min Rain = 0
KCA1 260821Z 18005KT 21/11 A30 RMK A01 T02140113  RH  053%=      5-min Rain = 0
KCA1 260822Z 17005KT 21/11 A30 RMK A01 T02140113  RH  052%=      5-min Rain = 0
KCA1 260823Z 18004KT 22/11 A30 RMK A01 T02150114  RH  053%=      5-min Rain = 0
KCA1 260824Z 18004KT 22/11 A30 RMK A01 T02150113  RH  052%=      5-min Rain = 0
KCA1 260825Z 19004KT 22/11 A30 RMK A01 T02160114  RH  052%=      5-min Rain = 0
KCA1 260826Z 18004KT 22/11 A30 RMK A01 T02160114  RH  052%=      5-min Rain = 0
KCA1 260827Z 19004KT 22/12 A30 RMK A01 T02150115  RH  053%=      5-min Rain = 0
KCA1 260828Z 20004KT 21/12 A30 RMK A01 T02140116  RH  054%=      5-min Rain = 0
KCA1 260829Z 20006KT 21/12 A30 RMK A01 T02120117  RH  054%=      5-min Rain = 0
KCA1 260830Z 19008KT 21/12 A30 RMK A01 T02110119  RH  055%=      5-min Rain = 0
KCA1 260831Z 18005KT 21/12 A30 RMK A01 T02130120  RH  055%=      5-min Rain = 0
KCA1 260832Z 19005KT 22/12 A30 RMK A01 T02160119  RH  054%=      5-min Rain = 0
KCA1 260833Z 18005KT 22/12 A30 RMK A01 T02170119  RH  054%=      5-min Rain = 0
KCA1 260834Z 18006KT 22/12 A30 RMK A01 T02160118  RH  054%=      5-min Rain = 0
KCA1 260835Z 18005KT 22/12 A30 RMK A01 T02160118  RH  054%=      5-min Rain = 0
KCA1 260836Z 17004KT 21/12 A30 RMK A01 T02140118  RH  054%=      5-min Rain = 0
KCA1 260837Z 16004KT 21/12 A30 RMK A01 T02130118  RH  055%=      5-min Rain = 0
KCA1 260838Z 16004KT 21/12 A30 RMK A01 T02130118  RH  055%=      5-min Rain = 0
KCA1 260839Z 16003KT 21/12 A30 RMK A01 T02120118  RH  055%=      5-min Rain = 0
KCA1 260840Z 14003KT 21/12 A30 RMK A01 T02110118  RH  055%=      5-min Rain = 0
KCA1 260841Z 13002KT 21/12 A30 RMK A01 T02110119  RH  056%=      5-min Rain = 0
KCA1 260842Z 13003KT 21/12 A30 RMK A01 T02100119  RH  056%=      5-min Rain = 0
KCA1 260843Z 14003KT 21/12 A30 RMK A01 T02080118  RH  056%=      5-min Rain = 0
KCA1 260844Z 13003KT 21/12 A30 RMK A01 T02080118  RH  056%=      5-min Rain = 0
KCA1 260845Z 11003KT 21/12 A30 RMK A01 T02070119  RH  057%=      5-min Rain = 0
KCA1 260846Z 08004KT 21/12 A30 RMK A01 T02050121  RH  059%=      5-min Rain = 0
KCA1 260847Z 07005KT 20/12 A3001 RMK A01 T02000121  RH  060%=      5-min Rain = 0
KCA1 260848Z 07005KT 20/12 A3001 RMK A01 T01970121  RH  061%=      5-min Rain = 0
KCA1 260849Z 07006KT 19/12 A30 RMK A01 T01940121  RH  063%=      5-min Rain = 0
KCA1 260850Z 07006KT 19/12 A30 RMK A01 T01920122  RH  064%=      5-min Rain = 0
KCA1 260851Z 07007KT 19/12 A30 RMK A01 T01900121  RH  064%=      5-min Rain = 0
KCA1 260852Z 08007KT 19/12 A30 RMK A01 T01890121  RH  065%=      5-min Rain = 0
KCA1 260853Z 08007KT 19/12 A30 RMK A01 T01880120  RH  064%=      5-min Rain = 0
KCA1 260854Z 08007KT 19/12 A30 RMK A01 T01880121  RH  065%=      5-min Rain = 0
KCA1 260855Z 09007KT 19/12 A30 RMK A01 T01870121  RH  065%=      5-min Rain = 0
KCA1 260856Z 09007KT 19/12 A30 RMK A01 T01860121  RH  066%=      5-min Rain = 0
KCA1 260857Z 09008KT 19/12 A30 RMK A01 T01850122  RH  066%=      5-min Rain = 0
KCA1 260858Z 09008KT 19/12 A30 RMK A01 T01850122  RH  066%=      5-min Rain = 0
KCA1 260859Z 09008KT 19/12 A30 RMK A01 T01850122  RH  067%=      5-min Rain = 0
KCA1 260900Z 09008KT 18/12 A30 RMK A01 T01840122  RH  067%=      5-min Rain = 0
KCA1 260901Z 09008KT 18/12 A30 RMK A01 T01830122  RH  068%=      5-min Rain = 0
KCA1 260902Z 10008KT 18/12 A30 RMK A01 T01820123  RH  068%=      5-min Rain = 0
KCA1 260903Z 10007KT 18/12 A30 RMK A01 T01810123  RH  069%=      5-min Rain = 0
KCA1 260904Z 10008KT 18/12 A30 RMK A01 T01800123  RH  069%=      5-min Rain = 0
KCA1 260905Z 11008KT 18/12 A30 RMK A01 T01790123  RH  070%=      5-min Rain = 0
KCA1 260906Z 11007KT 18/12 A30 RMK A01 T01800123  RH  069%=      5-min Rain = 0
KCA1 260907Z 11008KT 18/12 A30 RMK A01 T01810124  RH  069%=      5-min Rain = 0
KCA1 260908Z 11007KT 18/12 A30 RMK A01 T01810124  RH  069%=      5-min Rain = 0
KCA1 260909Z 11008KT 18/12 A30 RMK A01 T01810124  RH  069%=      5-min Rain = 0
KCA1 260910Z 10008KT 18/12 A30 RMK A01 T01810124  RH  069%=      5-min Rain = 0
KCA1 260911Z 11008KT 18/12 A30 RMK A01 T01800124  RH  070%=      5-min Rain = 0
KCA1 260912Z 11008KT 18/13 A30 RMK A01 T01800125  RH  070%=      5-min Rain = 0
KCA1 260913Z 11007KT 18/13 A30 RMK A01 T01800125  RH  070%=      5-min Rain = 0
KCA1 260914Z 11008KT 18/13 A30 RMK A01 T01800125  RH  071%=      5-min Rain = 0
KCA1 260915Z 11008KT 18/13 A30 RMK A01 T01800125  RH  070%=      5-min Rain = 0
KCA1 260916Z 10008KT 18/13 A30 RMK A01 T01810126  RH  070%=      5-min Rain = 0
KCA1 260917Z 10008KT 18/13 A30 RMK A01 T01830126  RH  069%=      5-min Rain = 0
KCA1 260918Z 11008KT 18/13 A30 RMK A01 T01840127  RH  069%=      5-min Rain = 0
KCA1 260919Z 11008KT 18/13 A30 RMK A01 T01830127  RH  069%=      5-min Rain = 0
KCA1 260920Z 10008KT 18/13 A30 RMK A01 T01840127  RH  070%=      5-min Rain = 0
KCA1 260921Z 11008KT 18/13 A30 RMK A01 T01830127  RH  070%=      5-min Rain = 0
KCA1 260922Z 11009KT 18/13 A30 RMK A01 T01840127  RH  069%=      5-min Rain = 0
KCA1 260923Z 11009KT 19/13 A30 RMK A01 T01860127  RH  068%=      5-min Rain = 0
KCA1 260924Z 12008KT 19/13 A30 RMK A01 T01880128  RH  068%=      5-min Rain = 0
KCA1 260925Z 12007KT 19/13 A30 RMK A01 T01890128  RH  067%=      5-min Rain = 0
KCA1 260926Z 12007KT 19/13 A30 RMK A01 T01910128  RH  067%=      5-min Rain = 0
KCA1 260927Z 12008KT 19/13 A30 RMK A01 T01920129  RH  067%=      5-min Rain = 0
KCA1 260928Z 12007KT 19/13 A30 RMK A01 T01930129  RH  066%=      5-min Rain = 0
KCA1 260929Z 12006KT 19/13 A30 RMK A01 T01940129  RH  066%=      5-min Rain = 0
KCA1 260930Z 12006KT 20/13 A30 RMK A01 T01950129  RH  066%=      5-min Rain = 0
KCA1 260931Z 11007KT 20/13 A30 RMK A01 T01950130  RH  066%=      5-min Rain = 0
KCA1 260932Z 11008KT 20/13 A30 RMK A01 T01960130  RH  066%=      5-min Rain = 0
KCA1 260933Z 11008KT 20/13 A30 RMK A01 T01950130  RH  066%=      5-min Rain = 0
KCA1 260934Z 11008KT 20/13 A30 RMK A01 T01950130  RH  066%=      5-min Rain = 0
KCA1 260935Z 11008KT 19/13 A30 RMK A01 T01940130  RH  067%=      5-min Rain = 0
KCA1 260936Z 10008KT 19/13 A30 RMK A01 T01920130  RH  067%=      5-min Rain = 0
KCA1 260937Z 10009KT 19/13 A30 RMK A01 T01910130  RH  068%=      5-min Rain = 0
KCA1 260938Z 11009KT 19/13 A30 RMK A01 T01900130  RH  068%=      5-min Rain = 0
KCA1 260939Z 11009KT 19/13 A30 RMK A01 T01890130  RH  069%=      5-min Rain = 0
KCA1 260940Z 11008KT 19/13 A30 RMK A01 T01880130  RH  069%=      5-min Rain = 0
KCA1 260941Z 11008KT 19/13 A30 RMK A01 T01880130  RH  069%=      5-min Rain = 0
KCA1 260942Z 10008KT 19/13 A30 RMK A01 T01880130  RH  069%=      5-min Rain = 0
KCA1 260943Z 10008KT 19/13 A30 RMK A01 T01880131  RH  069%=      5-min Rain = 0
KCA1 260944Z 10008KT 19/13 A30 RMK A01 T01870131  RH  070%=      5-min Rain = 0
KCA1 260945Z 10007KT 19/13 A30 RMK A01 T01870131  RH  070%=      5-min Rain = 0
KCA1 260946Z 10008KT 19/13 A30 RMK A01 T01870131  RH  070%=      5-min Rain = 0
KCA1 260947Z 10007KT 19/13 A30 RMK A01 T01860131  RH  070%=      5-min Rain = 0
KCA1 260948Z 10007KT 19/13 A30 RMK A01 T01850131  RH  071%=      5-min Rain = 0
KCA1 260949Z 10007KT 18/13 A30 RMK A01 T01840131  RH  071%=      5-min Rain = 0
KCA1 260950Z 10006KT 18/13 A30 RMK A01 T01830131  RH  071%=      5-min Rain = 0
KCA1 260951Z 09005KT 18/13 A30 RMK A01 T01830131  RH  072%=      5-min Rain = 0
KCA1 260952Z 09004KT 18/13 A30 RMK A01 T01810131  RH  073%=      5-min Rain = 0
KCA1 260953Z 08004KT 18/13 A3001 RMK A01 T01790131  RH  073%=      5-min Rain = 0
KCA1 260954Z 08004KT 18/13 A3001 RMK A01 T01770131  RH  074%=      5-min Rain = 0
KCA1 260955Z 06003KT 18/13 A3001 RMK A01 T01760131  RH  075%=      5-min Rain = 0
KCA1 260956Z 06003KT 18/13 A3001 RMK A01 T01750131  RH  075%=      5-min Rain = 0
KCA1 260957Z 07003KT 18/13 A3001 RMK A01 T01750131  RH  075%=      5-min Rain = 0
KCA1 260958Z 07003KT 18/13 A3001 RMK A01 T01750131  RH  075%=      5-min Rain = 0
KCA1 260959Z 08004KT 18/13 A3001 RMK A01 T01760132  RH  075%=      5-min Rain = 0
KCA1 261000Z 08004KT 18/13 A3001 RMK A01 T01770132  RH  075%=      5-min Rain = 0
KCA1 261001Z 07004KT 18/13 A3001 RMK A01 T01780132  RH  074%=      5-min Rain = 0
KCA1 261002Z 08004KT 18/13 A3001 RMK A01 T01790132  RH  074%=      5-min Rain = 0
KCA1 261003Z 09004KT 18/13 A3001 RMK A01 T01780133  RH  075%=      5-min Rain = 0
KCA1 261004Z 09004KT 18/13 A3001 RMK A01 T01770133  RH  075%=      5-min Rain = 0
KCA1 261005Z 09004KT 18/13 A3001 RMK A01 T01770132  RH  075%=      5-min Rain = 0
KCA1 261006Z 10004KT 18/13 A3001 RMK A01 T01760133  RH  076%=      5-min Rain = 0
KCA1 261007Z 11004KT 18/13 A3001 RMK A01 T01760133  RH  076%=      5-min Rain = 0
KCA1 261008Z 12003KT 18/13 A3001 RMK A01 T01760133  RH  076%=      5-min Rain = 0
KCA1 261009Z 13003KT 18/13 A3001 RMK A01 T01760132  RH  076%=      5-min Rain = 0
KCA1 261010Z 13003KT 18/13 A3001 RMK A01 T01770133  RH  075%=      5-min Rain = 0
KCA1 261011Z 12003KT 18/13 A3001 RMK A01 T01780133  RH  075%=      5-min Rain = 0
KCA1 261012Z 13003KT 18/13 A3001 RMK A01 T01800133  RH  074%=      5-min Rain = 0
KCA1 261013Z 14002KT 18/13 A3001 RMK A01 T01810133  RH  073%=      5-min Rain = 0
KCA1 261014Z 13002KT 18/13 A3001 RMK A01 T01810133  RH  073%=      5-min Rain = 0
KCA1 261015Z 13002KT 18/13 A3001 RMK A01 T01800133  RH  074%=      5-min Rain = 0
KCA1 261016Z 13002KT 18/13 A3001 RMK A01 T01790133  RH  074%=      5-min Rain = 0
KCA1 261017Z 12002KT 18/13 A3002 RMK A01 T01780133  RH  075%=      5-min Rain = 0
KCA1 261018Z 11002KT 18/13 A3002 RMK A01 T01770133  RH  076%=      5-min Rain = 0
KCA1 261019Z 11002KT 18/13 A3002 RMK A01 T01750133  RH  076%=      5-min Rain = 0
KCA1 261020Z 11002KT 17/13 A3002 RMK A01 T01740133  RH  077%=      5-min Rain = 0
KCA1 261021Z 11002KT 17/13 A3002 RMK A01 T01740134  RH  077%=      5-min Rain = 0
KCA1 261022Z 09002KT 17/13 A3001 RMK A01 T01730133  RH  077%=      5-min Rain = 0
KCA1 261023Z 06001KT 17/13 A3001 RMK A01 T01720134  RH  078%=      5-min Rain = 0
KCA1 261024Z 07002KT 17/13 A3001 RMK A01 T01720133  RH  078%=      5-min Rain = 0
KCA1 261025Z 08002KT 17/13 A3001 RMK A01 T01720133  RH  078%=      5-min Rain = 0
KCA1 261026Z 10002KT 17/13 A3001 RMK A01 T01710133  RH  078%=      5-min Rain = 0
KCA1 261027Z 10002KT 17/13 A3001 RMK A01 T01710133  RH  079%=      5-min Rain = 0
KCA1 261028Z 10002KT 17/13 A3001 RMK A01 T01710133  RH  079%=      5-min Rain = 0
KCA1 261029Z 09002KT 17/13 A3001 RMK A01 T01710134  RH  079%=      5-min Rain = 0
KCA1 261030Z 09002KT 17/13 A3001 RMK A01 T01710134  RH  079%=      5-min Rain = 0
KCA1 261031Z 08002KT 17/13 A3001 RMK A01 T01700134  RH  079%=      5-min Rain = 0
KCA1 261032Z 08002KT 17/13 A3001 RMK A01 T01700134  RH  079%=      5-min Rain = 0
KCA1 261033Z 08002KT 17/13 A3001 RMK A01 T01680133  RH  080%=      5-min Rain = 0
KCA1 261034Z 08003KT 17/13 A3001 RMK A01 T01670133  RH  080%=      5-min Rain = 0
KCA1 261035Z 08003KT 17/13 A3001 RMK A01 T01660133  RH  081%=      5-min Rain = 0
KCA1 261036Z 07003KT 17/13 A3001 RMK A01 T01650133  RH  081%=      5-min Rain = 0
KCA1 261037Z 06003KT 16/13 A3002 RMK A01 T01640133  RH  082%=      5-min Rain = 0
KCA1 261038Z 05003KT 16/13 A3002 RMK A01 T01620132  RH  082%=      5-min Rain = 0
KCA1 261039Z 05003KT 16/13 A3002 RMK A01 T01610132  RH  083%=      5-min Rain = 0
KCA1 261040Z 05003KT 16/13 A3002 RMK A01 T01600131  RH  083%=      5-min Rain = 0
KCA1 261041Z 05003KT 16/13 A3002 RMK A01 T01580131  RH  084%=      5-min Rain = 0
KCA1 261042Z 05003KT 16/13 A3002 RMK A01 T01580131  RH  084%=      5-min Rain = 0
KCA1 261043Z 05003KT 16/13 A3002 RMK A01 T01570131  RH  085%=      5-min Rain = 0
KCA1 261044Z 04003KT 16/13 A3002 RMK A01 T01560131  RH  085%=      5-min Rain = 0
KCA1 261045Z 04004KT 16/13 A3002 RMK A01 T01560131  RH  085%=      5-min Rain = 0
KCA1 261046Z 05004KT 16/13 A3002 RMK A01 T01560131  RH  085%=      5-min Rain = 0
KCA1 261047Z 06003KT 16/13 A3002 RMK A01 T01560131  RH  085%=      5-min Rain = 0
KCA1 261048Z 08003KT 16/13 A3002 RMK A01 T01550131  RH  085%=      5-min Rain = 0
KCA1 261049Z 08003KT 16/13 A3002 RMK A01 T01550131  RH  086%=      5-min Rain = 0
KCA1 261050Z 09003KT 16/13 A3002 RMK A01 T01560132  RH  086%=      5-min Rain = 0
KCA1 261051Z 09003KT 16/13 A3002 RMK A01 T01550131  RH  086%=      5-min Rain = 0
KCA1 261052Z 09004KT 16/13 A3002 RMK A01 T01560131  RH  085%=      5-min Rain = 0
KCA1 261053Z 09004KT 16/13 A3002 RMK A01 T01570132  RH  085%=      5-min Rain = 0
KCA1 261054Z 09003KT 16/13 A3002 RMK A01 T01590132  RH  084%=      5-min Rain = 0
KCA1 261055Z 09003KT 16/13 A3002 RMK A01 T01600132  RH  084%=      5-min Rain = 0
KCA1 261056Z 09004KT 16/13 A3002 RMK A01 T01600132  RH  083%=      5-min Rain = 0
KCA1 261057Z 10004KT 16/13 A3002 RMK A01 T01600132  RH  083%=      5-min Rain = 0
KCA1 261058Z 11004KT 16/13 A3002 RMK A01 T01610132  RH  083%=      5-min Rain = 0
KCA1 261059Z 11005KT 16/13 A3002 RMK A01 T01620132  RH  083%=      5-min Rain = 0
KCA1 261100Z 10005KT 16/13 A3002 RMK A01 T01630132  RH  082%=      5-min Rain = 0
KCA1 261101Z 11005KT 17/13 A3002 RMK A01 T01650133  RH  081%=      5-min Rain = 0
KCA1 261102Z 11006KT 17/13 A3002 RMK A01 T01660133  RH  081%=      5-min Rain = 0
KCA1 261103Z 11006KT 17/13 A3003 RMK A01 T01670133  RH  080%=      5-min Rain = 0
KCA1 261104Z 10006KT 17/13 A3003 RMK A01 T01680133  RH  080%=      5-min Rain = 0
KCA1 261105Z 10005KT 17/13 A3003 RMK A01 T01680134  RH  080%=      5-min Rain = 0
KCA1 261106Z 11005KT 17/13 A3003 RMK A01 T01680134  RH  080%=      5-min Rain = 0
KCA1 261107Z 11006KT 17/14 A3003 RMK A01 T01680135  RH  081%=      5-min Rain = 0
KCA1 261108Z 11006KT 17/13 A3003 RMK A01 T01680134  RH  081%=      5-min Rain = 0
KCA1 261109Z 11006KT 17/13 A3003 RMK A01 T01680134  RH  080%=      5-min Rain = 0
KCA1 261110Z 12006KT 17/13 A3002 RMK A01 T01690134  RH  080%=      5-min Rain = 0
KCA1 261111Z 12006KT 17/13 A3003 RMK A01 T01690134  RH  080%=      5-min Rain = 0
KCA1 261112Z 12006KT 17/13 A3002 RMK A01 T01690134  RH  080%=      5-min Rain = 0
KCA1 261113Z 12006KT 17/14 A3002 RMK A01 T01690135  RH  080%=      5-min Rain = 0
KCA1 261114Z 12006KT 17/13 A3002 RMK A01 T01680134  RH  080%=      5-min Rain = 0
KCA1 261115Z 12005KT 17/13 A3002 RMK A01 T01680134  RH  081%=      5-min Rain = 0
KCA1 261116Z 12004KT 17/13 A3002 RMK A01 T01670134  RH  081%=      5-min Rain = 0
KCA1 261117Z 12004KT 17/13 A3002 RMK A01 T01670134  RH  081%=      5-min Rain = 0
KCA1 261118Z 12004KT 17/13 A3002 RMK A01 T01670134  RH  081%=      5-min Rain = 0
KCA1 261119Z 11004KT 17/13 A3002 RMK A01 T01660134  RH  081%=      5-min Rain = 0
KCA1 261120Z 11004KT 17/13 A3003 RMK A01 T01660134  RH  081%=      5-min Rain = 0
KCA1 261121Z 10005KT 17/13 A3003 RMK A01 T01660134  RH  081%=      5-min Rain = 0
KCA1 261122Z 10006KT 17/13 A3003 RMK A01 T01650134  RH  082%=      5-min Rain = 0
KCA1 261123Z 10007KT 16/13 A3003 RMK A01 T01640134  RH  082%=      5-min Rain = 0
KCA1 261124Z 09008KT 16/13 A3003 RMK A01 T01630134  RH  083%=      5-min Rain = 0
KCA1 261125Z 09008KT 16/13 A3003 RMK A01 T01630134  RH  083%=      5-min Rain = 0
KCA1 261126Z 09008KT 16/14 A3003 RMK A01 T01630135  RH  083%=      5-min Rain = 0
KCA1 261127Z 09007KT 16/14 A3003 RMK A01 T01630135  RH  083%=      5-min Rain = 0
KCA1 261128Z 09008KT 16/14 A3003 RMK A01 T01640135  RH  083%=      5-min Rain = 0
KCA1 261129Z 08008KT 16/14 A3003 RMK A01 T01640135  RH  083%=      5-min Rain = 0
KCA1 261130Z 08008KT 16/14 A3003 RMK A01 T01640135  RH  083%=      5-min Rain = 0
KCA1 261131Z 08008KT 16/14 A3003 RMK A01 T01630135  RH  083%=      5-min Rain = 0
KCA1 261132Z 09009KT 16/14 A3003 RMK A01 T01630135  RH  084%=      5-min Rain = 0
KCA1 261133Z 09009KT 16/14 A3003 RMK A01 T01620136  RH  084%=      5-min Rain = 0
KCA1 261134Z 09010KT 16/14 A3003 RMK A01 T01620136  RH  084%=      5-min Rain = 0
KCA1 261135Z 09010KT 16/14 A3003 RMK A01 T01630137  RH  084%=      5-min Rain = 0
KCA1 261136Z 09009KT 16/14 A3004 RMK A01 T01630137  RH  084%=      5-min Rain = 0
KCA1 261137Z 09009KT 16/14 A3004 RMK A01 T01630136  RH  084%=      5-min Rain = 0
KCA1 261138Z 09008KT 16/14 A3004 RMK A01 T01630137  RH  084%=      5-min Rain = 0
KCA1 261139Z 09008KT 16/14 A3004 RMK A01 T01630136  RH  084%=      5-min Rain = 0
KCA1 261140Z 09008KT 16/14 A3004 RMK A01 T01630137  RH  084%=      5-min Rain = 0
KCA1 261141Z 09007KT 16/14 A3004 RMK A01 T01630137  RH  084%=      5-min Rain = 0
KCA1 261142Z 09007KT 16/14 A3004 RMK A01 T01630137  RH  084%=      5-min Rain = 0
KCA1 261143Z 09007KT 16/14 A3004 RMK A01 T01630137  RH  085%=      5-min Rain = 0
KCA1 261144Z 09007KT 16/14 A3004 RMK A01 T01620137  RH  085%=      5-min Rain = 0
KCA1 261145Z 09007KT 16/14 A3004 RMK A01 T01620137  RH  085%=      5-min Rain = 0
KCA1 261146Z 09007KT 16/14 A3004 RMK A01 T01620137  RH  085%=      5-min Rain = 0
KCA1 261147Z 09007KT 16/14 A3004 RMK A01 T01620137  RH  085%=      5-min Rain = 0
KCA1 261148Z 10007KT 16/14 A3004 RMK A01 T01620137  RH  085%=      5-min Rain = 0
KCA1 261149Z 10006KT 16/14 A3004 RMK A01 T01620137  RH  085%=      5-min Rain = 0
KCA1 261150Z 10006KT 16/14 A3004 RMK A01 T01620137  RH  085%=      5-min Rain = 0
KCA1 261151Z 10006KT 16/14 A3004 RMK A01 T01630137  RH  085%=      5-min Rain = 0
KCA1 261152Z 10006KT 16/14 A3004 RMK A01 T01630138  RH  085%=      5-min Rain = 0
KCA1 261153Z 10006KT 16/14 A3004 RMK A01 T01640138  RH  085%=      5-min Rain = 0
KCA1 261154Z 10006KT 16/14 A3004 RMK A01 T01640138  RH  085%=      5-min Rain = 0
KCA1 261155Z 11006KT 17/14 A3004 RMK A01 T01650139  RH  085%=      5-min Rain = 0
KCA1 261156Z 11006KT 17/14 A3004 RMK A01 T01660139  RH  084%=      5-min Rain = 0
KCA1 261157Z 11006KT 17/14 A3004 RMK A01 T01670140  RH  084%=      5-min Rain = 0
KCA1 261158Z 11006KT 17/14 A3004 RMK A01 T01680141  RH  084%=      5-min Rain = 0
KCA1 261159Z 11006KT 17/14 A3004 RMK A01 T01700142  RH  084%=      5-min Rain = 0
KCA1 261200Z 11006KT 17/14 A3004 RMK A01 T01710142  RH  083%=      5-min Rain = 0
KCA1 261201Z 11006KT 17/14 A3004 RMK A01 T01730143  RH  082%=      5-min Rain = 0
KCA1 261202Z 11006KT 17/14 A3004 RMK A01 T01740143  RH  082%=      5-min Rain = 0
KCA1 261203Z 11005KT 18/14 A3004 RMK A01 T01750143  RH  081%=      5-min Rain = 0
KCA1 261204Z 11005KT 18/14 A3004 RMK A01 T01760143  RH  081%=      5-min Rain = 0
KCA1 261205Z 10005KT 18/14 A3004 RMK A01 T01760143  RH  081%=      5-min Rain = 0
KCA1 261206Z 11005KT 18/14 A3004 RMK A01 T01770143  RH  081%=      5-min Rain = 0
KCA1 261207Z 11005KT 18/14 A3004 RMK A01 T01770143  RH  081%=      5-min Rain = 0
KCA1 261208Z 11005KT 18/14 A3004 RMK A01 T01780144  RH  080%=      5-min Rain = 0
KCA1 261209Z 11005KT 18/14 A3004 RMK A01 T01780143  RH  080%=      5-min Rain = 0
KCA1 261210Z 11005KT 18/14 A3004 RMK A01 T01780144  RH  080%=      5-min Rain = 0
KCA1 261211Z 11006KT 18/14 A3004 RMK A01 T01780144  RH  080%=      5-min Rain = 0
KCA1 261212Z 12007KT 18/14 A3004 RMK A01 T01790144  RH  080%=      5-min Rain = 0
KCA1 261213Z 12007KT 18/14 A3004 RMK A01 T01790144  RH  079%=      5-min Rain = 0
KCA1 261214Z 12007KT 18/14 A3004 RMK A01 T01800144  RH  079%=      5-min Rain = 0
KCA1 261215Z 12006KT 18/14 A3004 RMK A01 T01800144  RH  079%=      5-min Rain = 0
KCA1 261216Z 11006KT 18/14 A3004 RMK A01 T01810143  RH  079%=      5-min Rain = 0
KCA1 261217Z 12006KT 18/14 A3004 RMK A01 T01820143  RH  078%=      5-min Rain = 0
KCA1 261218Z 12006KT 18/14 A3004 RMK A01 T01820144  RH  078%=      5-min Rain = 0
KCA1 261219Z 12006KT 18/14 A3005 RMK A01 T01830144  RH  078%=      5-min Rain = 0
KCA1 261220Z 12006KT 18/14 A3005 RMK A01 T01840144  RH  078%=      5-min Rain = 0
KCA1 261221Z 12005KT 19/15 A3005 RMK A01 T01850145  RH  078%=      5-min Rain = 0
KCA1 261222Z 12005KT 19/15 A3005 RMK A01 T01860146  RH  078%=      5-min Rain = 0
KCA1 261223Z 13004KT 19/15 A3005 RMK A01 T01870147  RH  078%=      5-min Rain = 0
KCA1 261224Z 13005KT 19/15 A3005 RMK A01 T01870147  RH  077%=      5-min Rain = 0
KCA1 261225Z 13004KT 19/15 A3005 RMK A01 T01890146  RH  076%=      5-min Rain = 0
KCA1 261226Z 13005KT 19/15 A3005 RMK A01 T01900147  RH  076%=      5-min Rain = 0
KCA1 261227Z 13005KT 19/15 A3005 RMK A01 T01910148  RH  076%=      5-min Rain = 0
KCA1 261228Z 14005KT 19/15 A3005 RMK A01 T01910148  RH  076%=      5-min Rain = 0
KCA1 261229Z 13005KT 19/15 A3005 RMK A01 T01920149  RH  076%=      5-min Rain = 0
KCA1 261230Z 14005KT 19/15 A3005 RMK A01 T01920149  RH  076%=      5-min Rain = 0
KCA1 261231Z 14005KT 19/15 A3005 RMK A01 T01930149  RH  076%=      5-min Rain = 0
KCA1 261232Z 14005KT 19/15 A3005 RMK A01 T01930149  RH  075%=      5-min Rain = 0
KCA1 261233Z 14006KT 19/15 A3005 RMK A01 T01930148  RH  075%=      5-min Rain = 0
KCA1 261234Z 13007KT 19/15 A3005 RMK A01 T01940148  RH  075%=      5-min Rain = 0
KCA1 261235Z 13006KT 19/15 A3005 RMK A01 T01940148  RH  075%=      5-min Rain = 0
KCA1 261236Z 13007KT 19/15 A3005 RMK A01 T01940149  RH  075%=      5-min Rain = 0
KCA1 261237Z 14006KT 19/15 A3005 RMK A01 T01940148  RH  075%=      5-min Rain = 0
KCA1 261238Z 14006KT 19/15 A3005 RMK A01 T01940148  RH  074%=      5-min Rain = 0
KCA1 261239Z 13006KT 19/15 A3005 RMK A01 T01940147  RH  074%=      5-min Rain = 0
KCA1 261240Z 12006KT 19/15 A3006 RMK A01 T01940148  RH  074%=      5-min Rain = 0
KCA1 261241Z 12005KT 19/15 A3006 RMK A01 T01940148  RH  074%=      5-min Rain = 0
KCA1 261242Z 11004KT 20/15 A3006 RMK A01 T01950148  RH  074%=      5-min Rain = 0
KCA1 261243Z 11004KT 20/15 A3006 RMK A01 T01950148  RH  074%=      5-min Rain = 0
KCA1 261244Z 12004KT 20/15 A3006 RMK A01 T01950147  RH  074%=      5-min Rain = 0
KCA1 261245Z 11003KT 20/15 A3006 RMK A01 T01960147  RH  074%=      5-min Rain = 0
KCA1 261246Z 11002KT 20/15 A3006 RMK A01 T01960150  RH  074%=      5-min Rain = 0
KCA1 261247Z 11002KT 20/15 A3006 RMK A01 T01970149  RH  074%=      5-min Rain = 0
KCA1 261248Z 11002KT 20/15 A3006 RMK A01 T01980148  RH  073%=      5-min Rain = 0
KCA1 261249Z 11003KT 20/15 A3006 RMK A01 T01980148  RH  073%=      5-min Rain = 0
KCA1 261250Z 11003KT 20/15 A3006 RMK A01 T01990150  RH  073%=      5-min Rain = 0
KCA1 261251Z 12001KT 20/15 A3006 RMK A01 T02000149  RH  072%=      5-min Rain = 0
KCA1 261252Z 12003KT 20/15 A3006 RMK A01 T02000148  RH  072%=      5-min Rain = 0
KCA1 261253Z 12003KT 20/15 A3006 RMK A01 T02010148  RH  072%=      5-min Rain = 0
KCA1 261254Z 12003KT 20/15 A3006 RMK A01 T02010149  RH  072%=      5-min Rain = 0
KCA1 261255Z 12004KT 20/15 A3006 RMK A01 T02010149  RH  072%=      5-min Rain = 0
KCA1 261256Z 12004KT 20/15 A3006 RMK A01 T02020151  RH  072%=      5-min Rain = 0
KCA1 261257Z 12004KT 20/15 A3006 RMK A01 T02020150  RH  072%=      5-min Rain = 0
KCA1 261258Z 12003KT 20/15 A3006 RMK A01 T02030151  RH  072%=      5-min Rain = 0
KCA1 261259Z 12004KT 20/15 A3006 RMK A01 T02030152  RH  072%=      5-min Rain = 0
KCA1 261300Z 12003KT 20/15 A3006 RMK A01 T02040150  RH  071%=      5-min Rain = 0
KCA1 261301Z 13004KT 20/15 A3006 RMK A01 T02040149  RH  071%=      5-min Rain = 0
KCA1 261302Z 14003KT 20/15 A3006 RMK A01 T02040151  RH  072%=      5-min Rain = 0
KCA1 261303Z 14003KT 21/15 A3006 RMK A01 T02050154  RH  073%=      5-min Rain = 0
KCA1 261304Z 13004KT 21/15 A3006 RMK A01 T02050153  RH  072%=      5-min Rain = 0
KCA1 261305Z 14003KT 21/15 A3006 RMK A01 T02060154  RH  072%=      5-min Rain = 0
KCA1 261306Z 15004KT 21/15 A3006 RMK A01 T02060151  RH  071%=      5-min Rain = 0
KCA1 261307Z 14003KT 21/15 A3006 RMK A01 T02060152  RH  071%=      5-min Rain = 0
KCA1 261308Z 14004KT 21/15 A3006 RMK A01 T02070151  RH  070%=      5-min Rain = 0
KCA1 261309Z 15004KT 21/15 A3006 RMK A01 T02070152  RH  071%=      5-min Rain = 0
KCA1 261310Z 14005KT 21/15 A3006 RMK A01 T02080152  RH  070%=      5-min Rain = 0
KCA1 261311Z 13005KT 21/15 A3006 RMK A01 T02080152  RH  070%=      5-min Rain = 0
KCA1 261312Z 14005KT 21/15 A3006 RMK A01 T02090153  RH  071%=      5-min Rain = 0
KCA1 261313Z 15005KT 21/15 A3006 RMK A01 T02090152  RH  070%=      5-min Rain = 0
KCA1 261314Z 15004KT 21/15 A3006 RMK A01 T02090153  RH  070%=      5-min Rain = 0
KCA1 261315Z 15005KT 21/15 A3006 RMK A01 T02090151  RH  069%=      5-min Rain = 0
KCA1 261316Z 15005KT 21/15 A3006 RMK A01 T02100153  RH  070%=      5-min Rain = 0
KCA1 261317Z 15006KT 21/16 A3006 RMK A01 T02100155  RH  071%=      5-min Rain = 0
KCA1 261318Z 16004KT 21/15 A3006 RMK A01 T02110154  RH  070%=      5-min Rain = 0
KCA1 261319Z 15005KT 21/16 A3006 RMK A01 T02120155  RH  070%=      5-min Rain = 0
KCA1 261320Z 15004KT 21/16 A3006 RMK A01 T02120156  RH  070%=      5-min Rain = 0
KCA1 261321Z 17004KT 21/16 A3006 RMK A01 T02130158  RH  071%=      5-min Rain = 0
KCA1 261322Z 17002KT 21/16 A3006 RMK A01 T02140155  RH  069%=      5-min Rain = 0
KCA1 261323Z 18004KT 21/15 A3006 RMK A01 T02140154  RH  069%=      5-min Rain = 0
KCA1 261324Z 15005KT 21/16 A3006 RMK A01 T02140157  RH  070%=      5-min Rain = 0
KCA1 261325Z 16006KT 21/16 A3006 RMK A01 T02140157  RH  070%=      5-min Rain = 0
KCA1 261326Z 17005KT 22/16 A3006 RMK A01 T02150157  RH  070%=      5-min Rain = 0
KCA1 261327Z 18006KT 22/16 A3006 RMK A01 T02150156  RH  069%=      5-min Rain = 0
KCA1 261328Z 18005KT 21/16 A3006 RMK A01 T02140158  RH  070%=      5-min Rain = 0
KCA1 261329Z 17004KT 21/16 A3006 RMK A01 T02130158  RH  071%=      5-min Rain = 0
KCA1 261330Z 16004KT 21/16 A3006 RMK A01 T02130159  RH  071%=      5-min Rain = 0
KCA1 261331Z 15005KT 21/16 A3006 RMK A01 T02140160  RH  071%=      5-min Rain = 0
KCA1 261332Z 15005KT 22/16 A3006 RMK A01 T02150159  RH  070%=      5-min Rain = 0
KCA1 261333Z 16005KT 22/16 A3006 RMK A01 T02150159  RH  070%=      5-min Rain = 0
KCA1 261334Z 16005KT 22/16 A3006 RMK A01 T02150158  RH  070%=      5-min Rain = 0
KCA1 261335Z 15006KT 22/16 A3006 RMK A01 T02160160  RH  071%=      5-min Rain = 0
KCA1 261336Z 17004KT 22/16 A3006 RMK A01 T02160160  RH  070%=      5-min Rain = 0
KCA1 261337Z 16003KT 22/16 A3006 RMK A01 T02160160  RH  071%=      5-min Rain = 0
KCA1 261338Z 16002KT 22/16 A3006 RMK A01 T02170162  RH  071%=      5-min Rain = 0
KCA1 261339Z 15004KT 22/16 A3007 RMK A01 T02180164  RH  071%=      5-min Rain = 0
KCA1 261340Z 17005KT 22/16 A3007 RMK A01 T02190163  RH  070%=      5-min Rain = 0
KCA1 261341Z 17003KT 22/16 A3007 RMK A01 T02200161  RH  069%=      5-min Rain = 0
KCA1 261342Z 15002KT 22/16 A3007 RMK A01 T02200163  RH  070%=      5-min Rain = 0
KCA1 261343Z 13004KT 22/16 A3007 RMK A01 T02210163  RH  070%=      5-min Rain = 0
KCA1 261344Z 14003KT 22/16 A3007 RMK A01 T02220163  RH  069%=      5-min Rain = 0
KCA1 261345Z 13003KT 22/16 A3007 RMK A01 T02230163  RH  069%=      5-min Rain = 0
KCA1 261346Z 13004KT 22/17 A3007 RMK A01 T02240165  RH  069%=      5-min Rain = 0
KCA1 261347Z 14003KT 22/16 A3007 RMK A01 T02240162  RH  068%=      5-min Rain = 0
KCA1 261348Z 13005KT 22/16 A3007 RMK A01 T02230164  RH  069%=      5-min Rain = 0
KCA1 261349Z 13004KT 22/16 A3007 RMK A01 T02230164  RH  069%=      5-min Rain = 0
KCA1 261350Z 13004KT 22/16 A3007 RMK A01 T02230163  RH  069%=      5-min Rain = 0
KCA1 261351Z 13005KT 22/17 A3007 RMK A01 T02240165  RH  070%=      5-min Rain = 0
KCA1 261352Z 12006KT 23/17 A3007 RMK A01 T02250167  RH  070%=      5-min Rain = 0
KCA1 261353Z 13004KT 23/17 A3007 RMK A01 T02250167  RH  070%=      5-min Rain = 0
KCA1 261354Z 13004KT 23/17 A3007 RMK A01 T02260169  RH  070%=      5-min Rain = 0
KCA1 261355Z 12005KT 23/17 A3007 RMK A01 T02280171  RH  070%=      5-min Rain = 0
KCA1 261356Z 12004KT 23/17 A3008 RMK A01 T02300171  RH  069%=      5-min Rain = 0
KCA1 261357Z 13005KT 23/17 A3008 RMK A01 T02320173  RH  069%=      5-min Rain = 0
KCA1 261358Z 12006KT 23/17 A3008 RMK A01 T02330171  RH  068%=      5-min Rain = 0
KCA1 261359Z 13005KT 23/17 A3008 RMK A01 T02330171  RH  068%=      5-min Rain = 0
KCA1 261400Z 14006KT 23/17 A3008 RMK A01 T02340173  RH  069%=      5-min Rain = 0
KCA1 261401Z 13005KT 23/17 A3008 RMK A01 T02340172  RH  068%=      5-min Rain = 0
KCA1 261402Z 12004KT 24/17 A3008 RMK A01 T02350172  RH  068%=      5-min Rain = 0
KCA1 261403Z 14004KT 24/17 A3008 RMK A01 T02350174  RH  069%=      5-min Rain = 0
KCA1 261404Z 14004KT 24/17 A3008 RMK A01 T02360174  RH  068%=      5-min Rain = 0
KCA1 261405Z 12004KT 24/17 A3008 RMK A01 T02360173  RH  068%=      5-min Rain = 0
KCA1 261406Z 12005KT 24/17 A3008 RMK A01 T02350174  RH  068%=      5-min Rain = 0
KCA1 261407Z 13005KT 23/17 A3008 RMK A01 T02330173  RH  069%=      5-min Rain = 0
KCA1 261408Z 14005KT 23/17 A3008 RMK A01 T02320174  RH  070%=      5-min Rain = 0
KCA1 261409Z 12004KT 23/17 A3008 RMK A01 T02310174  RH  070%=      5-min Rain = 0
KCA1 261410Z 15005KT 23/18 A3008 RMK A01 T02320176  RH  071%=      5-min Rain = 0
KCA1 261411Z 15005KT 23/17 A3009 RMK A01 T02330174  RH  069%=      5-min Rain = 0
KCA1 261412Z 15004KT 24/18 A3009 RMK A01 T02350175  RH  069%=      5-min Rain = 0
KCA1 261413Z 16004KT 24/18 A3009 RMK A01 T02370176  RH  069%=      5-min Rain = 0
KCA1 261414Z 16004KT 24/18 A3009 RMK A01 T02380177  RH  069%=      5-min Rain = 0
KCA1 261415Z 14005KT 24/18 A3009 RMK A01 T02400175  RH  067%=      5-min Rain = 0
KCA1 261416Z 13004KT 24/18 A3009 RMK A01 T02410175  RH  067%=      5-min Rain = 0
KCA1 261417Z 14003KT 24/18 A3009 RMK A01 T02400176  RH  067%=      5-min Rain = 0
KCA1 261418Z 14004KT 24/18 A3009 RMK A01 T02410176  RH  067%=      5-min Rain = 0
KCA1 261419Z 14005KT 24/18 A3009 RMK A01 T02420178  RH  068%=      5-min Rain = 0
KCA1 261420Z 15004KT 24/18 A3009 RMK A01 T02430179  RH  067%=      5-min Rain = 0
KCA1 261421Z 14004KT 24/18 A3009 RMK A01 T02430178  RH  067%=      5-min Rain = 0
KCA1 261422Z 12002KT 24/18 A3009 RMK A01 T02420177  RH  067%=      5-min Rain = 0
KCA1 261423Z 16003KT 24/18 A3009 RMK A01 T02410176  RH  067%=      5-min Rain = 0
KCA1 261424Z 14003KT 24/18 A3009 RMK A01 T02400178  RH  068%=      5-min Rain = 0
KCA1 261425Z 11003KT 24/18 A3009 RMK A01 T02400179  RH  069%=      5-min Rain = 0
KCA1 261426Z 12003KT 24/18 A3009 RMK A01 T02400176  RH  067%=      5-min Rain = 0
KCA1 261427Z 11004KT 24/18 A3009 RMK A01 T02420177  RH  067%=      5-min Rain = 0
KCA1 261428Z 11004KT 24/18 A3009 RMK A01 T02440180  RH  068%=      5-min Rain = 0
KCA1 261429Z 14003KT 25/18 A3009 RMK A01 T02480181  RH  066%=      5-min Rain = 0
KCA1 261430Z 15004KT 25/18 A3009 RMK A01 T02510182  RH  066%=      5-min Rain = 0
KCA1 261431Z 14004KT 25/18 A3009 RMK A01 T02530180  RH  064%=      5-min Rain = 0
KCA1 261432Z 15004KT 25/18 A3009 RMK A01 T02530180  RH  064%=      5-min Rain = 0
KCA1 261433Z 15003KT 25/18 A3009 RMK A01 T02520179  RH  064%=      5-min Rain = 0
KCA1 261434Z 16003KT 25/18 A3009 RMK A01 T02510180  RH  065%=      5-min Rain = 0
KCA1 261435Z 16002KT 25/18 A301 RMK A01 T02500179  RH  065%=      5-min Rain = 0
KCA1 261436Z 17002KT 25/18 A301 RMK A01 T02490180  RH  066%=      5-min Rain = 0
KCA1 261437Z 17001KT 25/18 A301 RMK A01 T02490181  RH  066%=      5-min Rain = 0
KCA1 261438Z 18002KT 25/18 A301 RMK A01 T02490184  RH  067%=      5-min Rain = 0
KCA1 261439Z 19003KT 25/18 A301 RMK A01 T02510179  RH  064%=      5-min Rain = 0
KCA1 261440Z 15004KT 25/18 A301 RMK A01 T02540182  RH  064%=      5-min Rain = 0
KCA1 261441Z 16003KT 26/18 A301 RMK A01 T02550182  RH  064%=      5-min Rain = 0
KCA1 261442Z 18004KT 26/18 A3009 RMK A01 T02570184  RH  064%=      5-min Rain = 0
KCA1 261443Z 17006KT 26/18 A3009 RMK A01 T02590182  RH  063%=      5-min Rain = 0
KCA1 261444Z 18005KT 26/18 A3009 RMK A01 T02590181  RH  062%=      5-min Rain = 0
KCA1 261445Z 17004KT 26/18 A3009 RMK A01 T02590182  RH  062%=      5-min Rain = 0
KCA1 261446Z 18004KT 26/18 A3009 RMK A01 T02590182  RH  062%=      5-min Rain = 0
KCA1 261447Z 20005KT 26/18 A3009 RMK A01 T02590182  RH  062%=      5-min Rain = 0
KCA1 261448Z 17005KT 26/18 A3009 RMK A01 T02600184  RH  063%=      5-min Rain = 0
KCA1 261449Z 19005KT 26/18 A3009 RMK A01 T02610183  RH  062%=      5-min Rain = 0
KCA1 261450Z 19009KT 26/18 A3009 RMK A01 T02620184  RH  062%=      5-min Rain = 0
KCA1 261451Z 20008KT 26/19 A3009 RMK A01 T02620185  RH  063%=      5-min Rain = 0
KCA1 261452Z 20008KT 26/19 A3009 RMK A01 T02640186  RH  062%=      5-min Rain = 0
KCA1 261453Z 18007KT 27/19 A3009 RMK A01 T02650188  RH  063%=      5-min Rain = 0
KCA1 261454Z 18009KT 27/19 A3009 RMK A01 T02680186  RH  061%=      5-min Rain = 0
KCA1 261455Z 18007KT 27/18 A3009 RMK A01 T02680183  RH  059%=      5-min Rain = 0
KCA1 261456Z 19009KT 27/19 A3009 RMK A01 T02670185  RH  061%=      5-min Rain = 0
KCA1 261457Z 19011KT 27/18 A3009 RMK A01 T02670184  RH  060%=      5-min Rain = 0
KCA1 261458Z 20009KT 27/18 A3009 RMK A01 T02660183  RH  060%=      5-min Rain = 0
KCA1 261459Z 19008KT 27/18 A3009 RMK A01 T02650184  RH  061%=      5-min Rain = 0
KCA1 261500Z 19008KT 27/18 A3009 RMK A01 T02650184  RH  061%=      5-min Rain = 0
KCA1 261501Z 20009KT 27/19 A3009 RMK A01 T02650186  RH  062%=      5-min Rain = 0
KCA1 261502Z 20011KT 27/19 A3009 RMK A01 T02660185  RH  061%=      5-min Rain = 0
KCA1 261503Z 20009KT 27/18 A3009 RMK A01 T02660184  RH  061%=      5-min Rain = 0
KCA1 261504Z 20009KT 27/19 A3009 RMK A01 T02660185  RH  061%=      5-min Rain = 0
KCA1 261505Z 20010KT 27/19 A3009 RMK A01 T02660187  RH  062%=      5-min Rain = 0
KCA1 261506Z 20011KT 27/18 A3009 RMK A01 T02670184  RH  060%=      5-min Rain = 0
KCA1 261507Z 19009KT 27/18 A3009 RMK A01 T02670184  RH  060%=      5-min Rain = 0
KCA1 261508Z 20009KT 27/18 A3009 RMK A01 T02660183  RH  060%=      5-min Rain = 0
KCA1 261509Z 20008KT 27/19 A3009 RMK A01 T02650185  RH  061%=      5-min Rain = 0
KCA1 261510Z 19009KT 27/18 A3009 RMK A01 T02650184  RH  061%=      5-min Rain = 0
KCA1 261511Z 20008KT 27/19 A3008 RMK A01 T02650186  RH  062%=      5-min Rain = 0
KCA1 261512Z 19007KT 27/19 A3008 RMK A01 T02660187  RH  062%=      5-min Rain = 0
KCA1 261513Z 18008KT 27/19 A3008 RMK A01 T02670188  RH  062%=      5-min Rain = 0
KCA1 261514Z 18007KT 27/19 A3008 RMK A01 T02690189  RH  062%=      5-min Rain = 0
KCA1 261515Z 17007KT 27/19 A3008 RMK A01 T02710193  RH  063%=      5-min Rain = 0
KCA1 261516Z 18007KT 27/19 A3008 RMK A01 T02730189  RH  060%=      5-min Rain = 0
KCA1 261517Z 18008KT 27/19 A3008 RMK A01 T02740190  RH  060%=      5-min Rain = 0
KCA1 261518Z 19007KT 27/19 A3008 RMK A01 T02740190  RH  060%=      5-min Rain = 0
KCA1 261519Z 18007KT 27/19 A3008 RMK A01 T02740189  RH  060%=      5-min Rain = 0
KCA1 261520Z 20007KT 27/19 A3008 RMK A01 T02740189  RH  060%=      5-min Rain = 0
KCA1 261521Z 19009KT 27/19 A3009 RMK A01 T02720187  RH  060%=      5-min Rain = 0
KCA1 261522Z 18011KT 27/19 A3009 RMK A01 T02700185  RH  060%=      5-min Rain = 0
KCA1 261523Z 18008KT 27/19 A3009 RMK A01 T02670185  RH  060%=      5-min Rain = 0
KCA1 261524Z 20009KT 27/19 A3009 RMK A01 T02670188  RH  062%=      5-min Rain = 0
KCA1 261525Z 20007KT 27/19 A3009 RMK A01 T02690189  RH  062%=      5-min Rain = 0
KCA1 261526Z 19009KT 27/19 A3009 RMK A01 T02710188  RH  061%=      5-min Rain = 0
KCA1 261527Z 17008KT 27/19 A3009 RMK A01 T02710191  RH  061%=      5-min Rain = 0
KCA1 261528Z 19007KT 27/19 A3009 RMK A01 T02730189  RH  060%=      5-min Rain = 0
KCA1 261529Z 17009KT 27/19 A3009 RMK A01 T02740189  RH  060%=      5-min Rain = 0
KCA1 261530Z 17007KT 27/19 A3009 RMK A01 T02740188  RH  060%=      5-min Rain = 0
KCA1 261531Z 16009KT 28/19 A3009 RMK A01 T02750192  RH  061%=      5-min Rain = 0
KCA1 261532Z 17010KT 28/19 A3009 RMK A01 T02770190  RH  059%=      5-min Rain = 0
KCA1 261533Z 17009KT 28/19 A3009 RMK A01 T02780188  RH  058%=      5-min Rain = 0
KCA1 261534Z 17008KT 28/19 A3009 RMK A01 T02770187  RH  058%=      5-min Rain = 0
KCA1 261535Z 16008KT 28/19 A3009 RMK A01 T02760185  RH  057%=      5-min Rain = 0
KCA1 261536Z 17008KT 28/19 A3009 RMK A01 T02750187  RH  059%=      5-min Rain = 0
KCA1 261537Z 17007KT 28/19 A3009 RMK A01 T02750190  RH  060%=      5-min Rain = 0
KCA1 261538Z 17009KT 28/19 A3009 RMK A01 T02770188  RH  058%=      5-min Rain = 0
KCA1 261539Z 18008KT 28/18 A3009 RMK A01 T02770184  RH  057%=      5-min Rain = 0
KCA1 261540Z 19008KT 28/19 A3009 RMK A01 T02760187  RH  058%=      5-min Rain = 0
KCA1 261541Z 18008KT 28/19 A3008 RMK A01 T02760187  RH  058%=      5-min Rain = 0
KCA1 261542Z 18009KT 28/19 A3008 RMK A01 T02770189  RH  059%=      5-min Rain = 0
KCA1 261543Z 18008KT 28/19 A3008 RMK A01 T02780189  RH  058%=      5-min Rain = 0
KCA1 261544Z 17011KT 28/19 A3008 RMK A01 T02790190  RH  058%=      5-min Rain = 0
KCA1 261545Z 18009KT 28/19 A3008 RMK A01 T02800187  RH  057%=      5-min Rain = 0
KCA1 261546Z 20008KT 28/19 A3008 RMK A01 T02780186  RH  057%=      5-min Rain = 0
KCA1 261547Z 19010KT 28/19 A3008 RMK A01 T02770188  RH  058%=      5-min Rain = 0
KCA1 261548Z 19008KT 28/19 A3008 RMK A01 T02770191  RH  059%=      5-min Rain = 0
KCA1 261549Z 20009KT 28/19 A3008 RMK A01 T02770191  RH  059%=      5-min Rain = 0
KCA1 261550Z 20009KT 28/19 A3008 RMK A01 T02770191  RH  060%=      5-min Rain = 0
KCA1 261551Z 19009KT 28/19 A3008 RMK A01 T02770190  RH  059%=      5-min Rain = 0
KCA1 261552Z 20008KT 28/19 A3008 RMK A01 T02780188  RH  058%=      5-min Rain = 0
KCA1 261553Z 20007KT 28/19 A3008 RMK A01 T02780189  RH  058%=      5-min Rain = 0
KCA1 261554Z 21008KT 28/19 A3008 RMK A01 T02790189  RH  058%=      5-min Rain = 0
KCA1 261555Z 22010KT 28/19 A3008 RMK A01 T02810187  RH  057%=      5-min Rain = 0
KCA1 261556Z 22011KT 28/19 A3008 RMK A01 T02820185  RH  056%=      5-min Rain = 0
KCA1 261557Z 22011KT 28/19 A3008 RMK A01 T02840186  RH  055%=      5-min Rain = 0
KCA1 261558Z 22010KT 29/19 A3008 RMK A01 T02860186  RH  055%=      5-min Rain = 0
KCA1 261559Z 22011KT 29/18 A3008 RMK A01 T02860183  RH  054%=      5-min Rain = 0
KCA1 261600Z 21010KT 29/18 A3008 RMK A01 T02850183  RH  054%=      5-min Rain = 0
KCA1 261601Z 21010KT 28/19 A3008 RMK A01 T02840185  RH  055%=      5-min Rain = 0
KCA1 261602Z 22011KT 28/19 A3008 RMK A01 T02840187  RH  056%=      5-min Rain = 0
KCA1 261603Z 21010KT 29/19 A3008 RMK A01 T02850187  RH  056%=      5-min Rain = 0
KCA1 261604Z 20009KT 29/19 A3007 RMK A01 T02870192  RH  056%=      5-min Rain = 0
KCA1 261605Z 20011KT 29/19 A3007 RMK A01 T02890190  RH  055%=      5-min Rain = 0
KCA1 261606Z 22011KT 29/19 A3007 RMK A01 T02910187  RH  054%=      5-min Rain = 0
KCA1 261607Z 22013KT 29/19 A3007 RMK A01 T02910186  RH  053%=      5-min Rain = 0
KCA1 261608Z 22013KT 29/18 A3007 RMK A01 T02890183  RH  053%=      5-min Rain = 0
KCA1 261609Z 22011KT 29/18 A3007 RMK A01 T02880183  RH  053%=      5-min Rain = 0
KCA1 261610Z 20012KT 29/18 A3007 RMK A01 T02870184  RH  054%=      5-min Rain = 0
KCA1 261611Z 20013KT 29/18 A3007 RMK A01 T02860184  RH  054%=      5-min Rain = 0
KCA1 261612Z 20014KT 29/18 A3007 RMK A01 T02860181  RH  053%=      5-min Rain = 0
KCA1 261613Z 20011KT 29/18 A3007 RMK A01 T02860183  RH  054%=      5-min Rain = 0
KCA1 261614Z 20011KT 29/19 A3007 RMK A01 T02850185  RH  055%=      5-min Rain = 0
KCA1 261615Z 22012KT 29/19 A3007 RMK A01 T02880188  RH  055%=      5-min Rain = 0
KCA1 261616Z 21011KT 29/19 A3007 RMK A01 T02890186  RH  054%=      5-min Rain = 0
KCA1 261617Z 21012KT 29/19 A3007 RMK A01 T02900188  RH  054%=      5-min Rain = 0
KCA1 261618Z 21011KT 29/19 A3007 RMK A01 T02900186  RH  053%=      5-min Rain = 0
KCA1 261619Z 21010KT 29/19 A3007 RMK A01 T02910186  RH  053%=      5-min Rain = 0
KCA1 261620Z 19014KT 29/19 A3007 RMK A01 T02920188  RH  054%=      5-min Rain = 0
KCA1 261621Z 20011KT 29/19 A3007 RMK A01 T02920185  RH  052%=      5-min Rain = 0
KCA1 261622Z 21010KT 29/19 A3007 RMK A01 T02920187  RH  053%=      5-min Rain = 0
KCA1 261623Z 20011KT 29/19 A3007 RMK A01 T02930186  RH  053%=      5-min Rain = 0
KCA1 261624Z 20011KT 29/19 A3007 RMK A01 T02930187  RH  053%=      5-min Rain = 0
KCA1 261625Z 19011KT 29/19 A3007 RMK A01 T02930186  RH  052%=      5-min Rain = 0
KCA1 261626Z 19010KT 29/19 A3007 RMK A01 T02940188  RH  053%=      5-min Rain = 0
KCA1 261627Z 18014G19KT 30/19 A3007 RMK A01 T02960189  RH  053%=      5-min Rain = 0
KCA1 261628Z 19015KT 30/19 A3007 RMK A01 T02960185  RH  051%=      5-min Rain = 0
KCA1 261629Z 20015KT 29/19 A3007 RMK A01 T02940185  RH  052%=      5-min Rain = 0
KCA1 261630Z 21012KT 29/19 A3007 RMK A01 T02920186  RH  053%=      5-min Rain = 0
KCA1 261631Z 21013KT 29/19 A3007 RMK A01 T02920186  RH  053%=      5-min Rain = 0
KCA1 261632Z 22013KT 29/18 A3007 RMK A01 T02920184  RH  052%=      5-min Rain = 0
KCA1 261633Z 21012KT 29/18 A3007 RMK A01 T02920184  RH  052%=      5-min Rain = 0
KCA1 261634Z 21011G16KT 29/19 A3007 RMK A01 T02920186  RH  053%=      5-min Rain = 0
KCA1 261635Z 21013KT 29/19 A3007 RMK A01 T02920188  RH  053%=      5-min Rain = 0
KCA1 261636Z 21013KT 29/19 A3007 RMK A01 T02930187  RH  053%=      5-min Rain = 0
KCA1 261637Z 20008KT 29/19 A3007 RMK A01 T02930190  RH  054%=      5-min Rain = 0
KCA1 261638Z 19008KT 30/20 A3007 RMK A01 T02950195  RH  055%=      5-min Rain = 0
KCA1 261639Z 19010KT 30/19 A3007 RMK A01 T02980190  RH  053%=      5-min Rain = 0
KCA1 261640Z 19010KT 30/19 A3007 RMK A01 T02980189  RH  052%=      5-min Rain = 0
KCA1 261641Z 20010KT 30/19 A3007 RMK A01 T02960187  RH  052%=      5-min Rain = 0
KCA1 261642Z 19009KT 30/19 A3007 RMK A01 T02950190  RH  053%=      5-min Rain = 0
KCA1 261643Z 18010KT 30/19 A3007 RMK A01 T02960189  RH  053%=      5-min Rain = 0
KCA1 261644Z 19010KT 30/19 A3007 RMK A01 T02960193  RH  054%=      5-min Rain = 0
KCA1 261645Z 20011KT 30/19 A3007 RMK A01 T02980188  RH  052%=      5-min Rain = 0
KCA1 261646Z 20015KT 30/19 A3007 RMK A01 T02970186  RH  051%=      5-min Rain = 0
KCA1 261647Z 21014KT 30/18 A3007 RMK A01 T02960183  RH  051%=      5-min Rain = 0
KCA1 261648Z 22013KT 29/19 A3007 RMK A01 T02940186  RH  052%=      5-min Rain = 0
KCA1 261649Z 21013KT 29/19 A3007 RMK A01 T02930185  RH  052%=      5-min Rain = 0
KCA1 261650Z 20011KT 29/18 A3007 RMK A01 T02920183  RH  052%=      5-min Rain = 0
KCA1 261651Z 20012KT 29/18 A3007 RMK A01 T02910184  RH  052%=      5-min Rain = 0
KCA1 261652Z 19011KT 29/19 A3007 RMK A01 T02910186  RH  053%=      5-min Rain = 0
KCA1 261653Z 18011KT 29/19 A3007 RMK A01 T02910189  RH  054%=      5-min Rain = 0
KCA1 261654Z 19011KT 29/19 A3007 RMK A01 T02900192  RH  055%=      5-min Rain = 0
KCA1 261655Z 19009KT 29/19 A3007 RMK A01 T02910190  RH  055%=      5-min Rain = 0
KCA1 261656Z 20009KT 29/19 A3007 RMK A01 T02900193  RH  056%=      5-min Rain = 0
KCA1 261657Z 19008KT 29/20 A3007 RMK A01 T02900195  RH  056%=      5-min Rain = 0
KCA1 261658Z 19009KT 29/19 A3007 RMK A01 T02910193  RH  056%=      5-min Rain = 0
KCA1 261659Z 19012KT 29/19 A3007 RMK A01 T02920191  RH  055%=      5-min Rain = 0
KCA1 261700Z 19009KT 29/19 A3007 RMK A01 T02910191  RH  055%=      5-min Rain = 0
KCA1 261701Z 19011KT 29/19 A3007 RMK A01 T02910190  RH  055%=      5-min Rain = 0
KCA1 261702Z 19010KT 29/19 A3006 RMK A01 T02900189  RH  055%=      5-min Rain = 0
KCA1 261703Z 20010KT 29/19 A3006 RMK A01 T02900190  RH  055%=      5-min Rain = 0
KCA1 261704Z 21009KT 29/19 A3006 RMK A01 T02910192  RH  055%=      5-min Rain = 0
KCA1 261705Z 21009KT 29/19 A3006 RMK A01 T02930190  RH  054%=      5-min Rain = 0
KCA1 261706Z 19007KT 29/20 A3006 RMK A01 T02940195  RH  055%=      5-min Rain = 0
KCA1 261707Z 19008KT 30/20 A3006 RMK A01 T02970199  RH  056%=      5-min Rain = 0
KCA1 261708Z 18008KT 30/20 A3006 RMK A01 T02980195  RH  054%=      5-min Rain = 0
KCA1 261709Z 18008KT 30/20 A3006 RMK A01 T03000196  RH  054%=      5-min Rain = 0
KCA1 261710Z 18006KT 30/20 A3006 RMK A01 T03010195  RH  053%=      5-min Rain = 0
KCA1 261711Z 19008KT 30/19 A3006 RMK A01 T03010190  RH  051%=      5-min Rain = 0
KCA1 261712Z 20008KT 30/19 A3006 RMK A01 T03000192  RH  052%=      5-min Rain = 0
KCA1 261713Z 20009KT 30/19 A3006 RMK A01 T03000189  RH  051%=      5-min Rain = 0
KCA1 261714Z 19008KT 30/19 A3006 RMK A01 T03000189  RH  052%=      5-min Rain = 0
KCA1 261715Z 20010KT 30/19 A3006 RMK A01 T03010189  RH  051%=      5-min Rain = 0
KCA1 261716Z 20012KT 30/19 A3006 RMK A01 T03040188  RH  050%=      5-min Rain = 0
KCA1 261717Z 20011KT 31/18 A3006 RMK A01 T03060184  RH  048%=      5-min Rain = 0
KCA1 261718Z 20012KT 31/18 A3006 RMK A01 T03080182  RH  047%=      5-min Rain = 0
KCA1 261719Z 20012KT 31/18 A3005 RMK A01 T03090183  RH  047%=      5-min Rain = 0
KCA1 261720Z 20012KT 31/18 A3005 RMK A01 T03120184  RH  047%=      5-min Rain = 0
KCA1 261721Z 20013KT 31/18 A3005 RMK A01 T03130182  RH  046%=      5-min Rain = 0
KCA1 261722Z 20011KT 31/19 A3005 RMK A01 T03130185  RH  047%=      5-min Rain = 0
KCA1 261723Z 20010KT 31/18 A3005 RMK A01 T03120183  RH  046%=      5-min Rain = 0
KCA1 261724Z 19011KT 31/19 A3005 RMK A01 T03120187  RH  047%=      5-min Rain = 0
KCA1 261725Z 20011KT 32/18 A3005 RMK A01 T03150182  RH  045%=      5-min Rain = 0
KCA1 261726Z 20014G20KT 32/18 A3005 RMK A01 T03150177  RH  044%=      5-min Rain = 0
KCA1 261727Z 20016KT 32/18 A3005 RMK A01 T03150176  RH  044%=      5-min Rain = 0
KCA1 261728Z 18018KT 31/17 A3005 RMK A01 T03140174  RH  043%=      5-min Rain = 0
KCA1 261729Z 18013KT 31/17 A3005 RMK A01 T03140170  RH  042%=      5-min Rain = 0
KCA1 261730Z 19014KT 32/18 A3005 RMK A01 T03150176  RH  043%=      5-min Rain = 0
KCA1 261731Z 19014KT 32/18 A3005 RMK A01 T03160176  RH  043%=      5-min Rain = 0
KCA1 261732Z 19013G18KT 32/18 A3005 RMK A01 T03170178  RH  043%=      5-min Rain = 0
KCA1 261733Z 20014KT 32/18 A3005 RMK A01 T03170176  RH  043%=      5-min Rain = 0
KCA1 261734Z 21014KT 32/17 A3005 RMK A01 T03180174  RH  042%=      5-min Rain = 0
KCA1 261735Z 20014KT 32/17 A3005 RMK A01 T03170173  RH  042%=      5-min Rain = 0
KCA1 261736Z 19016KT 32/17 A3005 RMK A01 T03170171  RH  042%=      5-min Rain = 0
KCA1 261737Z 19015KT 32/17 A3005 RMK A01 T03160166  RH  041%=      5-min Rain = 0
KCA1 261738Z 19016KT 32/17 A3005 RMK A01 T03160167  RH  041%=      5-min Rain = 0
KCA1 261739Z 19016KT 32/17 A3005 RMK A01 T03160165  RH  040%=      5-min Rain = 0
KCA1 261740Z 20014KT 32/17 A3005 RMK A01 T03160167  RH  041%=      5-min Rain = 0
KCA1 261741Z 19013KT 32/17 A3005 RMK A01 T03160170  RH  042%=      5-min Rain = 0
KCA1 261742Z 19013KT 32/17 A3005 RMK A01 T03180169  RH  041%=      5-min Rain = 0
KCA1 261743Z 18015KT 32/17 A3005 RMK A01 T03190170  RH  041%=      5-min Rain = 0
KCA1 261744Z 19013KT 32/17 A3005 RMK A01 T03190166  RH  040%=      5-min Rain = 0
KCA1 261745Z 20011KT 32/18 A3005 RMK A01 T03200175  RH  042%=      5-min Rain = 0
KCA1 261746Z 19013G20KT 32/18 A3005 RMK A01 T03230176  RH  042%=      5-min Rain = 0
KCA1 261747Z 20019KT 32/17 A3005 RMK A01 T03240169  RH  040%=      5-min Rain = 0
KCA1 261748Z 19016G21KT 32/17 A3005 RMK A01 T03210166  RH  039%=      5-min Rain = 0
KCA1 261749Z 20018KT 32/17 A3005 RMK A01 T03190166  RH  040%=      5-min Rain = 0
KCA1 261750Z 21016KT 32/17 A3005 RMK A01 T03180168  RH  041%=      5-min Rain = 0
KCA1 261751Z 20015KT 32/17 A3005 RMK A01 T03170169  RH  041%=      5-min Rain = 0
KCA1 261752Z 20014KT 32/17 A3005 RMK A01 T03170172  RH  042%=      5-min Rain = 0
KCA1 261753Z 20014KT 32/17 A3005 RMK A01 T03180172  RH  042%=      5-min Rain = 0
KCA1 261754Z 20012KT 32/18 A3005 RMK A01 T03180175  RH  043%=      5-min Rain = 0
KCA1 261755Z 19009KT 32/18 A3005 RMK A01 T03180176  RH  043%=      5-min Rain = 0
KCA1 261756Z 19010G16KT 32/18 A3005 RMK A01 T03190179  RH  044%=      5-min Rain = 0
KCA1 261757Z 19013KT 32/18 A3005 RMK A01 T03200179  RH  043%=      5-min Rain = 0
KCA1 261758Z 19016KT 32/18 A3005 RMK A01 T03220179  RH  043%=      5-min Rain = 0
KCA1 261759Z 20015KT 32/17 A3005 RMK A01 T03230174  RH  041%=      5-min Rain = 0
KCA1 261800Z 19017KT 32/17 A3005 RMK A01 T03240167  RH  039%=      5-min Rain = 0
KCA1 261801Z 19018KT 32/17 A3005 RMK A01 T03220165  RH  039%=      5-min Rain = 0
KCA1 261802Z 19015KT 32/16 A3005 RMK A01 T03200164  RH  039%=      5-min Rain = 0
KCA1 261803Z 19014KT 32/17 A3005 RMK A01 T03190167  RH  040%=      5-min Rain = 0
KCA1 261804Z 18016KT 32/17 A3005 RMK A01 T03210169  RH  040%=      5-min Rain = 0
KCA1 261805Z 18014KT 32/17 A3005 RMK A01 T03210171  RH  041%=      5-min Rain = 0
KCA1 261806Z 19014KT 32/17 A3005 RMK A01 T03220172  RH  041%=      5-min Rain = 0
KCA1 261807Z 18014G19KT 32/18 A3005 RMK A01 T03220177  RH  042%=      5-min Rain = 0
KCA1 261808Z 19011KT 32/18 A3005 RMK A01 T03240180  RH  042%=      5-min Rain = 0
KCA1 261809Z 18014KT 33/18 A3005 RMK A01 T03250177  RH  041%=      5-min Rain = 0
KCA1 261810Z 19012KT 32/17 A3005 RMK A01 T03240173  RH  041%=      5-min Rain = 0
KCA1 261811Z 19010KT 32/17 A3005 RMK A01 T03220172  RH  041%=      5-min Rain = 0
KCA1 261812Z 19011KT 32/18 A3005 RMK A01 T03200177  RH  043%=      5-min Rain = 0
KCA1 261813Z 17016KT 32/18 A3005 RMK A01 T03220179  RH  042%=      5-min Rain = 0
KCA1 261814Z 17014KT 32/18 A3005 RMK A01 T03230175  RH  041%=      5-min Rain = 0
KCA1 261815Z 19013KT 32/18 A3005 RMK A01 T03230178  RH  042%=      5-min Rain = 0
KCA1 261816Z 18018KT 33/18 A3005 RMK A01 T03250177  RH  041%=      5-min Rain = 0
KCA1 261817Z 18018KT 33/18 A3005 RMK A01 T03260175  RH  041%=      5-min Rain = 0
KCA1 261818Z 17013KT 33/18 A3005 RMK A01 T03250177  RH  041%=      5-min Rain = 0
KCA1 261819Z 19013KT 33/18 A3005 RMK A01 T03260178  RH  041%=      5-min Rain = 0
KCA1 261820Z 20013KT 33/18 A3005 RMK A01 T03270176  RH  041%=      5-min Rain = 0
KCA1 261821Z 19011KT 33/18 A3005 RMK A01 T03260179  RH  042%=      5-min Rain = 0
KCA1 261822Z 18011KT 33/18 A3005 RMK A01 T03280178  RH  041%=      5-min Rain = 0
KCA1 261823Z 19013KT 33/18 A3005 RMK A01 T03300183  RH  042%=      5-min Rain = 0
KCA1 261824Z 17016KT 33/18 A3005 RMK A01 T03310176  RH  040%=      5-min Rain = 0
KCA1 261825Z 18020G25KT 33/17 A3005 RMK A01 T03290172  RH  039%=      5-min Rain = 0
KCA1 261826Z 18018KT 33/17 A3005 RMK A01 T03260170  RH  039%=      5-min Rain = 0
KCA1 261827Z 18014KT 33/18 A3005 RMK A01 T03250175  RH  041%=      5-min Rain = 0
KCA1 261828Z 18018KT 33/17 A3005 RMK A01 T03260174  RH  040%=      5-min Rain = 0
KCA1 261829Z 17014KT 33/17 A3005 RMK A01 T03270173  RH  040%=      5-min Rain = 0
KCA1 261830Z 17014G21KT 33/18 A3005 RMK A01 T03270178  RH  041%=      5-min Rain = 0
KCA1 261831Z 17017KT 33/17 A3005 RMK A01 T03280174  RH  040%=      5-min Rain = 0
KCA1 261832Z 17019KT 33/18 A3005 RMK A01 T03270176  RH  041%=      5-min Rain = 0
KCA1 261833Z 17019G25KT 33/17 A3005 RMK A01 T03260168  RH  039%=      5-min Rain = 0
KCA1 261834Z 17020KT 33/17 A3005 RMK A01 T03250170  RH  040%=      5-min Rain = 0
KCA1 261835Z 18017KT 32/17 A3005 RMK A01 T03240170  RH  040%=      5-min Rain = 0
KCA1 261836Z 17015KT 32/17 A3005 RMK A01 T03240171  RH  040%=      5-min Rain = 0
KCA1 261837Z 17014KT 32/18 A3005 RMK A01 T03240176  RH  041%=      5-min Rain = 0
KCA1 261838Z 17012KT 33/18 A3005 RMK A01 T03250177  RH  041%=      5-min Rain = 0
KCA1 261839Z 17015KT 33/18 A3005 RMK A01 T03260181  RH  042%=      5-min Rain = 0
KCA1 261840Z 17016KT 33/18 A3005 RMK A01 T03270177  RH  041%=      5-min Rain = 0
KCA1 261841Z 17014KT 33/18 A3005 RMK A01 T03260176  RH  041%=      5-min Rain = 0
KCA1 261842Z 19013KT 33/18 A3005 RMK A01 T03250180  RH  042%=      5-min Rain = 0
KCA1 261843Z 19016KT 33/18 A3005 RMK A01 T03260181  RH  042%=      5-min Rain = 0
KCA1 261844Z 18017KT 33/18 A3005 RMK A01 T03280178  RH  041%=      5-min Rain = 0
KCA1 261845Z 19018KT 33/18 A3005 RMK A01 T03270176  RH  041%=      5-min Rain = 0
KCA1 261846Z 19015KT 33/18 A3005 RMK A01 T03250177  RH  042%=      5-min Rain = 0
KCA1 261847Z 19016KT 32/18 A3005 RMK A01 T03230178  RH  042%=      5-min Rain = 0
KCA1 261848Z 19016KT 32/18 A3005 RMK A01 T03230178  RH  042%=      5-min Rain = 0
KCA1 261849Z 18013KT 32/18 A3005 RMK A01 T03230181  RH  043%=      5-min Rain = 0
KCA1 261850Z 18016KT 33/19 A3005 RMK A01 T03250185  RH  044%=      5-min Rain = 0
KCA1 261851Z 19017KT 33/18 A3005 RMK A01 T03260183  RH  043%=      5-min Rain = 0
KCA1 261852Z 17015KT 33/18 A3005 RMK A01 T03260182  RH  042%=      5-min Rain = 0
KCA1 261853Z 17017KT 33/18 A3005 RMK A01 T03270181  RH  042%=      5-min Rain = 0
KCA1 261854Z 16015KT 33/18 A3005 RMK A01 T03270175  RH  040%=      5-min Rain = 0
KCA1 261855Z 16012KT 32/17 A3005 RMK A01 T03240174  RH  041%=      5-min Rain = 0
KCA1 261856Z 19016G21KT 32/18 A3005 RMK A01 T03230176  RH  042%=      5-min Rain = 0
KCA1 261857Z 19013KT 33/18 A3005 RMK A01 T03250176  RH  041%=      5-min Rain = 0
KCA1 261858Z 19011KT 33/18 A3005 RMK A01 T03260175  RH  041%=      5-min Rain = 0
KCA1 261859Z 19011KT 33/18 A3005 RMK A01 T03260177  RH  041%=      5-min Rain = 0
KCA1 261900Z 18014KT 33/18 A3005 RMK A01 T03270177  RH  041%=      5-min Rain = 0
KCA1 261901Z 19014KT 33/18 A3005 RMK A01 T03270179  RH  041%=      5-min Rain = 0
KCA1 261902Z 18016KT 33/18 A3005 RMK A01 T03290179  RH  041%=      5-min Rain = 0
KCA1 261903Z 18014KT 33/18 A3005 RMK A01 T03300177  RH  040%=      5-min Rain = 0
KCA1 261904Z 18015KT 33/18 A3005 RMK A01 T03300175  RH  040%=      5-min Rain = 0
KCA1 261905Z 18014KT 33/18 A3005 RMK A01 T03280177  RH  041%=      5-min Rain = 0
KCA1 261906Z 18013KT 33/18 A3005 RMK A01 T03280180  RH  042%=      5-min Rain = 0
KCA1 261907Z 18013KT 33/18 A3005 RMK A01 T03290181  RH  041%=      5-min Rain = 0
KCA1 261908Z 19014KT 33/18 A3005 RMK A01 T03300182  RH  042%=      5-min Rain = 0
KCA1 261909Z 19015KT 33/18 A3005 RMK A01 T03310182  RH  041%=      5-min Rain = 0
KCA1 261910Z 19015KT 33/18 A3005 RMK A01 T03310179  RH  040%=      5-min Rain = 0
KCA1 261911Z 17016KT 33/18 A3005 RMK A01 T03300176  RH  040%=      5-min Rain = 0
KCA1 261912Z 16017KT 33/18 A3005 RMK A01 T03290177  RH  040%=      5-min Rain = 0
KCA1 261913Z 17021KT 33/18 A3005 RMK A01 T03300175  RH  040%=      5-min Rain = 0
KCA1 261914Z 17016KT 33/17 A3005 RMK A01 T03290173  RH  039%=      5-min Rain = 0
KCA1 261915Z 17016KT 33/17 A3005 RMK A01 T03270174  RH  040%=      5-min Rain = 0
KCA1 261916Z 17018G24KT 33/17 A3005 RMK A01 T03280174  RH  040%=      5-min Rain = 0
KCA1 261917Z 16018G23KT 33/17 A3005 RMK A01 T03290170  RH  039%=      5-min Rain = 0
KCA1 261918Z 15017KT 33/17 A3005 RMK A01 T03290168  RH  038%=      5-min Rain = 0
KCA1 261919Z 16016KT 33/17 A3005 RMK A01 T03280171  RH  039%=      5-min Rain = 0
KCA1 261920Z 16014KT 33/17 A3005 RMK A01 T03280170  RH  039%=      5-min Rain = 0
KCA1 261921Z 16015G21KT 33/17 A3005 RMK A01 T03290170  RH  039%=      5-min Rain = 0
KCA1 261922Z 16016G24KT 33/17 A3005 RMK A01 T03290170  RH  039%=      5-min Rain = 0
KCA1 261923Z 18017KT 33/17 A3005 RMK A01 T03290172  RH  039%=      5-min Rain = 0
KCA1 261924Z 17019KT 33/17 A3005 RMK A01 T03290170  RH  039%=      5-min Rain = 0
KCA1 261925Z 17019G24KT 33/17 A3005 RMK A01 T03290170  RH  039%=      5-min Rain = 0
KCA1 261926Z 17019KT 33/17 A3005 RMK A01 T03290171  RH  039%=      5-min Rain = 0
KCA1 261927Z 18016KT 33/17 A3005 RMK A01 T03280174  RH  040%=      5-min Rain = 0
KCA1 261928Z 18018KT 33/17 A3005 RMK A01 T03280172  RH  039%=      5-min Rain = 0
KCA1 261929Z 17019G24KT 33/17 A3005 RMK A01 T03270171  RH  039%=      5-min Rain = 0
KCA1 261930Z 17021KT 33/17 A3005 RMK A01 T03280171  RH  039%=      5-min Rain = 0
KCA1 261931Z 16020KT 33/17 A3005 RMK A01 T03270172  RH  040%=      5-min Rain = 0
KCA1 261932Z 16020KT 33/18 A3005 RMK A01 T03270175  RH  040%=      5-min Rain = 0
KCA1 261933Z 17020KT 33/18 A3005 RMK A01 T03270176  RH  041%=      5-min Rain = 0
KCA1 261934Z 17019KT 33/18 A3005 RMK A01 T03270179  RH  041%=      5-min Rain = 0
KCA1 261935Z 18017KT 33/18 A3005 RMK A01 T03260180  RH  042%=      5-min Rain = 0
KCA1 261936Z 18014KT 33/18 A3005 RMK A01 T03250182  RH  043%=      5-min Rain = 0
KCA1 261937Z 17013KT 32/18 A3005 RMK A01 T03240184  RH  043%=      5-min Rain = 0
KCA1 261938Z 17012KT 32/19 A3004 RMK A01 T03240186  RH  044%=      5-min Rain = 0
KCA1 261939Z 16015KT 33/19 A3004 RMK A01 T03270188  RH  044%=      5-min Rain = 0
KCA1 261940Z 17015KT 33/19 A3004 RMK A01 T03290188  RH  043%=      5-min Rain = 0
KCA1 261941Z 17014G19KT 33/19 A3004 RMK A01 T03300194  RH  045%=      5-min Rain = 0
KCA1 261942Z 17020KT 33/19 A3004 RMK A01 T03320191  RH  043%=      5-min Rain = 0
KCA1 261943Z 17022KT 33/19 A3004 RMK A01 T03310188  RH  043%=      5-min Rain = 0
KCA1 261944Z 17017KT 33/19 A3004 RMK A01 T03290187  RH  043%=      5-min Rain = 0
KCA1 261945Z 17016KT 33/19 A3004 RMK A01 T03280188  RH  044%=      5-min Rain = 0
KCA1 261946Z 17016KT 33/19 A3004 RMK A01 T03290191  RH  044%=      5-min Rain = 0
KCA1 261947Z 16018KT 33/19 A3004 RMK A01 T03300187  RH  043%=      5-min Rain = 0
KCA1 261948Z 17016KT 33/19 A3004 RMK A01 T03300189  RH  043%=      5-min Rain = 0
KCA1 261949Z 17019KT 33/19 A3004 RMK A01 T03300188  RH  043%=      5-min Rain = 0
KCA1 261950Z 16015KT 33/19 A3004 RMK A01 T03310189  RH  043%=      5-min Rain = 0
KCA1 261951Z 16016KT 33/19 A3004 RMK A01 T03330192  RH  043%=      5-min Rain = 0
KCA1 261952Z 16015KT 34/19 A3004 RMK A01 T03350193  RH  043%=      5-min Rain = 0
KCA1 261953Z 17018KT 34/19 A3004 RMK A01 T03350188  RH  042%=      5-min Rain = 0
KCA1 261954Z 17014G19KT 33/19 A3004 RMK A01 T03320186  RH  042%=      5-min Rain = 0
KCA1 261955Z 17009KT 33/19 A3004 RMK A01 T03310190  RH  043%=      5-min Rain = 0
KCA1 261956Z 16011G17KT 33/19 A3004 RMK A01 T03330190  RH  043%=      5-min Rain = 0
KCA1 261957Z 16020KT 33/19 A3004 RMK A01 T03340188  RH  042%=      5-min Rain = 0
KCA1 261958Z 16018KT 33/18 A3004 RMK A01 T03330183  RH  041%=      5-min Rain = 0
KCA1 261959Z 16018G24KT 33/19 A3004 RMK A01 T03330187  RH  042%=      5-min Rain = 0
KCA1 262000Z 16015KT 33/18 A3004 RMK A01 T03300183  RH  042%=      5-min Rain = 0
KCA1 262001Z 16016KT 33/19 A3004 RMK A01 T03290186  RH  043%=      5-min Rain = 0
KCA1 262002Z 16023G28KT 33/18 A3004 RMK A01 T03290183  RH  042%=      5-min Rain = 0
KCA1 262003Z 18019KT 33/18 A3004 RMK A01 T03290183  RH  042%=      5-min Rain = 0
KCA1 262004Z 18018KT 33/19 A3004 RMK A01 T03280187  RH  043%=      5-min Rain = 0
KCA1 262005Z 18017G22KT 33/19 A3004 RMK A01 T03280187  RH  043%=      5-min Rain = 0
KCA1 262006Z 19013G18KT 33/19 A3004 RMK A01 T03270190  RH  044%=      5-min Rain = 0
KCA1 262007Z 18019G25KT 33/19 A3004 RMK A01 T03280190  RH  044%=      5-min Rain = 0
KCA1 262008Z 16020KT 33/19 A3004 RMK A01 T03290188  RH  043%=      5-min Rain = 0
KCA1 262009Z 16019KT 33/19 A3003 RMK A01 T03280187  RH  043%=      5-min Rain = 0
KCA1 262010Z 17018KT 33/19 A3003 RMK A01 T03270186  RH  043%=      5-min Rain = 0
KCA1 262011Z 17016KT 33/19 A3004 RMK A01 T03270189  RH  044%=      5-min Rain = 0
KCA1 262012Z 17020G26KT 33/19 A3003 RMK A01 T03270186  RH  043%=      5-min Rain = 0
KCA1 262013Z 17020KT 33/19 A3003 RMK A01 T03270187  RH  043%=      5-min Rain = 0
KCA1 262014Z 18023KT 33/18 A3003 RMK A01 T03280182  RH  042%=      5-min Rain = 0
KCA1 262015Z 18021KT 33/18 A3003 RMK A01 T03270182  RH  042%=      5-min Rain = 0
KCA1 262016Z 18020KT 33/18 A3003 RMK A01 T03250182  RH  043%=      5-min Rain = 0
KCA1 262017Z 19018KT 32/18 A3003 RMK A01 T03240184  RH  043%=      5-min Rain = 0
KCA1 262018Z 18016G21KT 33/19 A3003 RMK A01 T03250187  RH  044%=      5-min Rain = 0
KCA1 262019Z 18014KT 33/19 A3003 RMK A01 T03270188  RH  044%=      5-min Rain = 0
KCA1 262020Z 18013KT 33/19 A3003 RMK A01 T03280189  RH  044%=      5-min Rain = 0
KCA1 262021Z 17016KT 33/19 A3003 RMK A01 T03300192  RH  044%=      5-min Rain = 0
KCA1 262022Z 17017G22KT 33/19 A3003 RMK A01 T03320190  RH  043%=      5-min Rain = 0
KCA1 262023Z 16018G23KT 33/19 A3003 RMK A01 T03330187  RH  042%=      5-min Rain = 0
KCA1 262024Z 16019KT 33/19 A3003 RMK A01 T03330186  RH  042%=      5-min Rain = 0
KCA1 262025Z 16015KT 33/19 A3003 RMK A01 T03320188  RH  043%=      5-min Rain = 0
KCA1 262026Z 17015G20KT 33/19 A3003 RMK A01 T03320190  RH  043%=      5-min Rain = 0
KCA1 262027Z 17019KT 33/19 A3003 RMK A01 T03310185  RH  042%=      5-min Rain = 0
KCA1 262028Z 17014G19KT 33/19 A3003 RMK A01 T03290189  RH  043%=      5-min Rain = 0
KCA1 262029Z 18016G22KT 33/19 A3003 RMK A01 T03310193  RH  044%=      5-min Rain = 0
KCA1 262030Z 16021KT 33/19 A3003 RMK A01 T03330186  RH  042%=      5-min Rain = 0
KCA1 262031Z 17021KT 33/18 A3003 RMK A01 T03320182  RH  041%=      5-min Rain = 0
KCA1 262032Z 17018G23KT 33/18 A3003 RMK A01 T03310182  RH  041%=      5-min Rain = 0
KCA1 262033Z 17020G25KT 33/18 A3003 RMK A01 T03310180  RH  041%=      5-min Rain = 0
KCA1 262034Z 17020KT 33/18 A3003 RMK A01 T03300180  RH  041%=      5-min Rain = 0
KCA1 262035Z 19019KT 33/18 A3003 RMK A01 T03300180  RH  041%=      5-min Rain = 0
KCA1 262036Z 18018G25KT 33/18 A3003 RMK A01 T03300184  RH  042%=      5-min Rain = 0
KCA1 262037Z 17016G23KT 33/18 A3003 RMK A01 T03300184  RH  042%=      5-min Rain = 0
KCA1 262038Z 18017KT 33/19 A3003 RMK A01 T03300186  RH  043%=      5-min Rain = 0
KCA1 262039Z 20015KT 33/19 A3003 RMK A01 T03320189  RH  043%=      5-min Rain = 0
KCA1 262040Z 20018KT 33/19 A3003 RMK A01 T03340188  RH  042%=      5-min Rain = 0
KCA1 262041Z 18019KT 33/19 A3003 RMK A01 T03340187  RH  042%=      5-min Rain = 0
KCA1 262042Z 18019KT 33/18 A3003 RMK A01 T03330184  RH  041%=      5-min Rain = 0
KCA1 262043Z 17017KT 33/18 A3003 RMK A01 T03330179  RH  040%=      5-min Rain = 0
KCA1 262044Z 18016G21KT 33/18 A3003 RMK A01 T03320178  RH  040%=      5-min Rain = 0
KCA1 262045Z 18019G24KT 33/18 A3003 RMK A01 T03320180  RH  041%=      5-min Rain = 0
KCA1 262046Z 17017KT 33/18 A3003 RMK A01 T03320182  RH  041%=      5-min Rain = 0
KCA1 262047Z 17017KT 33/18 A3003 RMK A01 T03310183  RH  042%=      5-min Rain = 0
KCA1 262048Z 17014KT 33/18 A3003 RMK A01 T03300184  RH  042%=      5-min Rain = 0
KCA1 262049Z 18012KT 33/19 A3003 RMK A01 T03310188  RH  043%=      5-min Rain = 0
KCA1 262050Z 17012KT 33/19 A3003 RMK A01 T03340191  RH  043%=      5-min Rain = 0
KCA1 262051Z 19010KT 34/19 A3002 RMK A01 T03360192  RH  043%=      5-min Rain = 0
KCA1 262052Z 18013KT 34/20 A3002 RMK A01 T03370195  RH  043%=      5-min Rain = 0
KCA1 262053Z 16017G22KT 34/19 A3002 RMK A01 T03380190  RH  042%=      5-min Rain = 0
KCA1 262054Z 16022KT 34/18 A3002 RMK A01 T03380183  RH  040%=      5-min Rain = 0
KCA1 262055Z 17018KT 34/18 A3002 RMK A01 T03360184  RH  041%=      5-min Rain = 0
KCA1 262056Z 17020KT 34/18 A3002 RMK A01 T03350182  RH  040%=      5-min Rain = 0
KCA1 262057Z 18018KT 34/18 A3002 RMK A01 T03350178  RH  039%=      5-min Rain = 0
KCA1 262058Z 18017KT 33/18 A3002 RMK A01 T03340177  RH  039%=      5-min Rain = 0
KCA1 262059Z 18021KT 33/18 A3002 RMK A01 T03330177  RH  040%=      5-min Rain = 0
KCA1 262100Z 17020KT 33/18 A3002 RMK A01 T03320178  RH  040%=      5-min Rain = 0
KCA1 262101Z 18016KT 33/18 A3002 RMK A01 T03310181  RH  041%=      5-min Rain = 0
KCA1 262102Z 17015KT 33/18 A3002 RMK A01 T03310183  RH  042%=      5-min Rain = 0
KCA1 262103Z 17016KT 33/18 A3002 RMK A01 T03320183  RH  041%=      5-min Rain = 0
KCA1 262104Z 17020KT 33/18 A3002 RMK A01 T03320183  RH  041%=      5-min Rain = 0
KCA1 262105Z 18021KT 33/18 A3002 RMK A01 T03340178  RH  040%=      5-min Rain = 0
KCA1 262106Z 18022KT 33/18 A3002 RMK A01 T03330175  RH  039%=      5-min Rain = 0
KCA1 262107Z 17019KT 33/17 A3002 RMK A01 T03320173  RH  039%=      5-min Rain = 0
KCA1 262108Z 17019KT 33/18 A3002 RMK A01 T03320175  RH  039%=      5-min Rain = 0
KCA1 262109Z 17018KT 33/18 A3002 RMK A01 T03320175  RH  039%=      5-min Rain = 0
KCA1 262110Z 18019KT 33/18 A3002 RMK A01 T03320178  RH  040%=      5-min Rain = 0
KCA1 262111Z 17016KT 33/18 A3002 RMK A01 T03320178  RH  040%=      5-min Rain = 0
KCA1 262112Z 17015KT 33/18 A3002 RMK A01 T03320182  RH  041%=      5-min Rain = 0
KCA1 262113Z 18017KT 33/18 A3002 RMK A01 T03330183  RH  041%=      5-min Rain = 0
KCA1 262114Z 18018KT 33/18 A3002 RMK A01 T03330182  RH  041%=      5-min Rain = 0
KCA1 262115Z 19014G19KT 33/18 A3002 RMK A01 T03340184  RH  041%=      5-min Rain = 0
KCA1 262116Z 17018KT 34/18 A3002 RMK A01 T03360182  RH  040%=      5-min Rain = 0
KCA1 262117Z 17019KT 34/18 A3002 RMK A01 T03370177  RH  039%=      5-min Rain = 0
KCA1 262118Z 18017KT 34/18 A3002 RMK A01 T03360180  RH  040%=      5-min Rain = 0
KCA1 262119Z 18015KT 34/18 A3002 RMK A01 T03360177  RH  039%=      5-min Rain = 0
KCA1 262120Z 19021G26KT 34/17 A3002 RMK A01 T03360173  RH  038%=      5-min Rain = 0
KCA1 262121Z 18023KT 33/17 A3001 RMK A01 T03340173  RH  038%=      5-min Rain = 0
KCA1 262122Z 18018KT 33/18 A3002 RMK A01 T03330175  RH  039%=      5-min Rain = 0
KCA1 262123Z 18015KT 33/18 A3002 RMK A01 T03330179  RH  040%=      5-min Rain = 0
KCA1 262124Z 18017KT 33/18 A3002 RMK A01 T03340181  RH  040%=      5-min Rain = 0
KCA1 262125Z 18015KT 34/18 A3002 RMK A01 T03350181  RH  040%=      5-min Rain = 0
KCA1 262126Z 18017G24KT 34/18 A3002 RMK A01 T03350183  RH  041%=      5-min Rain = 0
KCA1 262127Z 18018G23KT 34/18 A3002 RMK A01 T03350184  RH  041%=      5-min Rain = 0
KCA1 262128Z 17017KT 33/19 A3002 RMK A01 T03340185  RH  041%=      5-min Rain = 0
KCA1 262129Z 17015KT 33/18 A3002 RMK A01 T03340183  RH  041%=      5-min Rain = 0
KCA1 262130Z 16014KT 33/19 A3002 RMK A01 T03330187  RH  042%=      5-min Rain = 0
KCA1 262131Z 18016G25KT 33/19 A3001 RMK A01 T03340189  RH  043%=      5-min Rain = 0
KCA1 262132Z 16019G24KT 34/19 A3001 RMK A01 T03360186  RH  041%=      5-min Rain = 0
KCA1 262133Z 16023KT 34/18 A3001 RMK A01 T03360182  RH  040%=      5-min Rain = 0
KCA1 262134Z 16018KT 33/18 A3001 RMK A01 T03340181  RH  040%=      5-min Rain = 0
KCA1 262135Z 16019KT 33/18 A3002 RMK A01 T03330182  RH  041%=      5-min Rain = 0
KCA1 262136Z 16017KT 33/18 A3001 RMK A01 T03330177  RH  040%=      5-min Rain = 0
KCA1 262137Z 17020KT 33/18 A3001 RMK A01 T03330178  RH  040%=      5-min Rain = 0
KCA1 262138Z 17016KT 33/18 A3002 RMK A01 T03320182  RH  041%=      5-min Rain = 0
KCA1 262139Z 18013G18KT 33/19 A3002 RMK A01 T03330185  RH  042%=      5-min Rain = 0
KCA1 262140Z 17016KT 34/18 A3002 RMK A01 T03350183  RH  041%=      5-min Rain = 0
KCA1 262141Z 18013KT 34/19 A3002 RMK A01 T03350185  RH  041%=      5-min Rain = 0
KCA1 262142Z 17018G23KT 34/19 A3001 RMK A01 T03370187  RH  041%=      5-min Rain = 0
KCA1 262143Z 17020KT 34/18 A3001 RMK A01 T03380178  RH  039%=      5-min Rain = 0
KCA1 262144Z 16020G25KT 34/18 A3001 RMK A01 T03370176  RH  038%=      5-min Rain = 0
KCA1 262145Z 18020KT 34/17 A3001 RMK A01 T03360172  RH  038%=      5-min Rain = 0
KCA1 262146Z 17018KT 34/18 A3001 RMK A01 T03360175  RH  038%=      5-min Rain = 0
KCA1 262147Z 17017G22KT 33/18 A3001 RMK A01 T03340177  RH  039%=      5-min Rain = 0
KCA1 262148Z 17021KT 33/18 A3001 RMK A01 T03330176  RH  039%=      5-min Rain = 0
KCA1 262149Z 16016KT 33/18 A3001 RMK A01 T03310180  RH  041%=      5-min Rain = 0
KCA1 262150Z 17013KT 33/18 A3001 RMK A01 T03310183  RH  041%=      5-min Rain = 0
KCA1 262151Z 17015KT 33/19 A3001 RMK A01 T03330187  RH  042%=      5-min Rain = 0
KCA1 262152Z 17018G25KT 33/18 A3001 RMK A01 T03340183  RH  041%=      5-min Rain = 0
KCA1 262153Z 17021KT 33/18 A3001 RMK A01 T03330181  RH  040%=      5-min Rain = 0
KCA1 262154Z 18015KT 33/18 A3001 RMK A01 T03320181  RH  041%=      5-min Rain = 0
KCA1 262155Z 17020KT 33/18 A3001 RMK A01 T03330181  RH  041%=      5-min Rain = 0
KCA1 262156Z 17015KT 33/18 A3001 RMK A01 T03330180  RH  040%=      5-min Rain = 0
KCA1 262157Z 17013KT 33/18 A3001 RMK A01 T03330184  RH  041%=      5-min Rain = 0
KCA1 262158Z 17018G23KT 34/19 A3001 RMK A01 T03360187  RH  041%=      5-min Rain = 0
KCA1 262159Z 16016G22KT 34/18 A3001 RMK A01 T03370180  RH  040%=      5-min Rain = 0
KCA1 262200Z 16020KT 34/18 A3001 RMK A01 T03370181  RH  040%=      5-min Rain = 0
KCA1 262201Z 16015KT 34/18 A3001 RMK A01 T03350177  RH  039%=      5-min Rain = 0
KCA1 262202Z 16015KT 33/18 A3001 RMK A01 T03340179  RH  040%=      5-min Rain = 0
KCA1 262203Z 17015G21KT 33/18 A3001 RMK A01 T03340182  RH  040%=      5-min Rain = 0
KCA1 262204Z 18019G24KT 33/18 A30 RMK A01 T03340181  RH  040%=      5-min Rain = 0
KCA1 262205Z 17016KT 33/18 A3001 RMK A01 T03340178  RH  040%=      5-min Rain = 0
KCA1 262206Z 16016KT 33/18 A30 RMK A01 T03330180  RH  040%=      5-min Rain = 0
KCA1 262207Z 16017KT 33/18 A30 RMK A01 T03330180  RH  040%=      5-min Rain = 0
KCA1 262208Z 16017KT 33/18 A30 RMK A01 T03330181  RH  041%=      5-min Rain = 0
KCA1 262209Z 16021KT 33/18 A30 RMK A01 T03340181  RH  040%=      5-min Rain = 0
KCA1 262210Z 16020KT 33/18 A30 RMK A01 T03330179  RH  040%=      5-min Rain = 0
KCA1 262211Z 17018KT 33/18 A30 RMK A01 T03320179  RH  040%=      5-min Rain = 0
KCA1 262212Z 16017KT 33/18 A30 RMK A01 T03320182  RH  041%=      5-min Rain = 0
KCA1 262213Z 16015G20KT 33/18 A30 RMK A01 T03310181  RH  041%=      5-min Rain = 0
KCA1 262214Z 15022KT 33/18 A30 RMK A01 T03320182  RH  041%=      5-min Rain = 0
KCA1 262215Z 16019KT 33/18 A30 RMK A01 T03310178  RH  040%=      5-min Rain = 0
KCA1 262216Z 15016KT 33/18 A30 RMK A01 T03310179  RH  040%=      5-min Rain = 0
KCA1 262217Z 17017G22KT 33/18 A30 RMK A01 T03300181  RH  041%=      5-min Rain = 0
KCA1 262218Z 17018KT 33/18 A30 RMK A01 T03320180  RH  041%=      5-min Rain = 0
KCA1 262219Z 17018KT 33/18 A30 RMK A01 T03310180  RH  041%=      5-min Rain = 0
KCA1 262220Z 17015KT 33/18 A30 RMK A01 T03310181  RH  041%=      5-min Rain = 0
KCA1 262221Z 17017G22KT 33/18 A30 RMK A01 T03320182  RH  041%=      5-min Rain = 0
KCA1 262222Z 16023G28KT 33/18 A30 RMK A01 T03320182  RH  041%=      5-min Rain = 0
KCA1 262223Z 17021G27KT 33/18 A30 RMK A01 T03310180  RH  041%=      5-min Rain = 0
KCA1 262224Z 16020KT 33/18 A30 RMK A01 T03300182  RH  041%=      5-min Rain = 0
KCA1 262225Z 16019G24KT 33/18 A30 RMK A01 T03300182  RH  042%=      5-min Rain = 0
KCA1 262226Z 15017G22KT 33/18 A30 RMK A01 T03300184  RH  042%=      5-min Rain = 0
KCA1 262227Z 16017KT 33/19 A30 RMK A01 T03310185  RH  042%=      5-min Rain = 0
KCA1 262228Z 16020G27KT 33/18 A30 RMK A01 T03320182  RH  041%=      5-min Rain = 0
KCA1 262229Z 17020G27KT 33/18 A30 RMK A01 T03320180  RH  040%=      5-min Rain = 0
KCA1 262230Z 17020KT 33/18 A30 RMK A01 T03320178  RH  040%=      5-min Rain = 0
KCA1 262231Z 17017G23KT 33/18 A30 RMK A01 T03300175  RH  040%=      5-min Rain = 0
KCA1 262232Z 16019KT 33/18 A30 RMK A01 T03300178  RH  041%=      5-min Rain = 0
KCA1 262233Z 16022KT 33/18 A30 RMK A01 T03290179  RH  041%=      5-min Rain = 0
KCA1 262234Z 17019G24KT 33/18 A30 RMK A01 T03290182  RH  042%=      5-min Rain = 0
KCA1 262235Z 17018KT 33/18 A30 RMK A01 T03280182  RH  042%=      5-min Rain = 0
KCA1 262236Z 16018KT 33/18 A30 RMK A01 T03290183  RH  042%=      5-min Rain = 0
KCA1 262237Z 17018KT 33/18 A30 RMK A01 T03290184  RH  042%=      5-min Rain = 0
KCA1 262238Z 16017G24KT 33/19 A30 RMK A01 T03290185  RH  042%=      5-min Rain = 0
KCA1 262239Z 16020G25KT 33/19 A30 RMK A01 T03290186  RH  043%=      5-min Rain = 0
KCA1 262240Z 17019G24KT 33/18 A30 RMK A01 T03300182  RH  042%=      5-min Rain = 0
KCA1 262241Z 17019KT 33/18 A30 RMK A01 T03290183  RH  042%=      5-min Rain = 0
KCA1 262242Z 16015KT 33/19 A30 RMK A01 T03290185  RH  042%=      5-min Rain = 0
KCA1 262243Z 16018G23KT 33/19 A30 RMK A01 T03300185  RH  042%=      5-min Rain = 0
KCA1 262244Z 16018KT 33/18 A2999 RMK A01 T03290183  RH  042%=      5-min Rain = 0
KCA1 262245Z 16018G23KT 33/18 A30 RMK A01 T03290182  RH  042%=      5-min Rain = 0
KCA1 262246Z 16021KT 33/18 A2999 RMK A01 T03290180  RH  041%=      5-min Rain = 0
KCA1 262247Z 16018KT 33/18 A30 RMK A01 T03290180  RH  041%=      5-min Rain = 0
KCA1 262248Z 17019G24KT 33/18 A30 RMK A01 T03290179  RH  041%=      5-min Rain = 0
KCA1 262249Z 17019KT 33/18 A30 RMK A01 T03280180  RH  041%=      5-min Rain = 0
KCA1 262250Z 17020G26KT 33/18 A30 RMK A01 T03280181  RH  042%=      5-min Rain = 0
KCA1 262251Z 17018G23KT 33/18 A30 RMK A01 T03290178  RH  041%=      5-min Rain = 0
KCA1 262252Z 17018KT 33/18 A30 RMK A01 T03290181  RH  041%=      5-min Rain = 0
KCA1 262253Z 17015KT 33/18 A30 RMK A01 T03290177  RH  040%=      5-min Rain = 0
KCA1 262254Z 17014KT 33/18 A30 RMK A01 T03280180  RH  041%=      5-min Rain = 0
KCA1 262255Z 17015G20KT 33/18 A30 RMK A01 T03280180  RH  041%=      5-min Rain = 0
KCA1 262256Z 17018G23KT 33/18 A30 RMK A01 T03280180  RH  041%=      5-min Rain = 0
KCA1 262257Z 18018G24KT 33/18 A2999 RMK A01 T03280180  RH  041%=      5-min Rain = 0
KCA1 262258Z 18023KT 33/18 A2999 RMK A01 T03290177  RH  040%=      5-min Rain = 0
KCA1 262259Z 18018KT 33/17 A30 RMK A01 T03290174  RH  040%=      5-min Rain = 0
KCA1 262300Z 17014KT 33/18 A30 RMK A01 T03290179  RH  041%=      5-min Rain = 0
KCA1 262301Z 16018KT 33/18 A30 RMK A01 T03280181  RH  042%=      5-min Rain = 0
KCA1 262302Z 16018G23KT 33/18 A30 RMK A01 T03290180  RH  041%=      5-min Rain = 0
KCA1 262303Z 16014KT 33/18 A30 RMK A01 T03280182  RH  042%=      5-min Rain = 0
KCA1 262304Z 17015G21KT 33/19 A30 RMK A01 T03290185  RH  043%=      5-min Rain = 0
KCA1 262305Z 19017G24KT 33/18 A30 RMK A01 T03290183  RH  042%=      5-min Rain = 0
KCA1 262306Z 18020KT 33/18 A30 RMK A01 T03300179  RH  041%=      5-min Rain = 0
KCA1 262307Z 17018G23KT 33/18 A30 RMK A01 T03280178  RH  041%=      5-min Rain = 0
KCA1 262308Z 17017KT 33/18 A30 RMK A01 T03270179  RH  041%=      5-min Rain = 0
KCA1 262309Z 17013KT 33/18 A30 RMK A01 T03270182  RH  042%=      5-min Rain = 0
KCA1 262310Z 17014G19KT 33/19 A30 RMK A01 T03280185  RH  043%=      5-min Rain = 0
KCA1 262311Z 17016G21KT 33/18 A30 RMK A01 T03290183  RH  042%=      5-min Rain = 0
KCA1 262312Z 16018KT 33/18 A30 RMK A01 T03290179  RH  041%=      5-min Rain = 0
KCA1 262313Z 16020G26KT 33/18 A30 RMK A01 T03280179  RH  041%=      5-min Rain = 0
KCA1 262314Z 16019KT 33/18 A30 RMK A01 T03270178  RH  041%=      5-min Rain = 0
KCA1 262315Z 16018G24KT 33/18 A30 RMK A01 T03260180  RH  042%=      5-min Rain = 0
KCA1 262316Z 16021KT 33/18 A30 RMK A01 T03260179  RH  042%=      5-min Rain = 0
KCA1 262317Z 17019KT 33/18 A30 RMK A01 T03250179  RH  042%=      5-min Rain = 0
KCA1 262318Z 17020KT 33/18 A30 RMK A01 T03250179  RH  042%=      5-min Rain = 0
KCA1 262319Z 17018G23KT 33/18 A30 RMK A01 T03250177  RH  041%=      5-min Rain = 0
KCA1 262320Z 18019KT 33/17 A30 RMK A01 T03260173  RH  040%=      5-min Rain = 0
KCA1 262321Z 18018KT 33/17 A30 RMK A01 T03260173  RH  040%=      5-min Rain = 0
KCA1 262322Z 17018G25KT 33/18 A30 RMK A01 T03260175  RH  041%=      5-min Rain = 0
KCA1 262323Z 17017KT 33/18 A2999 RMK A01 T03260175  RH  041%=      5-min Rain = 0
KCA1 262324Z 17018KT 33/18 A2999 RMK A01 T03260176  RH  041%=      5-min Rain = 0
KCA1 262325Z 16018KT 33/18 A2999 RMK A01 T03260175  RH  041%=      5-min Rain = 0
KCA1 262326Z 16018KT 33/18 A2999 RMK A01 T03250177  RH  041%=      5-min Rain = 0
KCA1 262327Z 17018KT 33/18 A2999 RMK A01 T03250178  RH  042%=      5-min Rain = 0
KCA1 262328Z 18019KT 32/18 A2999 RMK A01 T03240179  RH  042%=      5-min Rain = 0
KCA1 262329Z 16019KT 32/18 A2999 RMK A01 T03240179  RH  042%=      5-min Rain = 0
KCA1 262330Z 16019KT 32/18 A2999 RMK A01 T03240177  RH  042%=      5-min Rain = 0
KCA1 262331Z 17015KT 32/18 A2999 RMK A01 T03240176  RH  041%=      5-min Rain = 0
KCA1 262332Z 17015KT 32/18 A2999 RMK A01 T03240178  RH  042%=      5-min Rain = 0
KCA1 262333Z 17013KT 33/18 A2999 RMK A01 T03250179  RH  042%=      5-min Rain = 0
KCA1 262334Z 16016G21KT 33/18 A2999 RMK A01 T03250180  RH  042%=      5-min Rain = 0
KCA1 262335Z 16017KT 33/18 A2999 RMK A01 T03260180  RH  042%=      5-min Rain = 0
KCA1 262336Z 16020KT 33/18 A2999 RMK A01 T03250179  RH  042%=      5-min Rain = 0
KCA1 262337Z 16022KT 32/18 A2999 RMK A01 T03240176  RH  042%=      5-min Rain = 0
KCA1 262338Z 17017G24KT 32/18 A2999 RMK A01 T03220177  RH  042%=      5-min Rain = 0
KCA1 262339Z 16020G25KT 32/18 A2999 RMK A01 T03230180  RH  043%=      5-min Rain = 0
KCA1 262340Z 16014KT 32/18 A2999 RMK A01 T03220180  RH  043%=      5-min Rain = 0
KCA1 262341Z 15014KT 32/18 A2999 RMK A01 T03220182  RH  043%=      5-min Rain = 0
KCA1 262342Z 16014KT 32/18 A2999 RMK A01 T03220183  RH  044%=      5-min Rain = 0
KCA1 262343Z 16019KT 32/18 A2999 RMK A01 T03230183  RH  043%=      5-min Rain = 0
KCA1 262344Z 16020G25KT 32/18 A2999 RMK A01 T03230179  RH  042%=      5-min Rain = 0
KCA1 262345Z 16018G23KT 32/18 A2999 RMK A01 T03230181  RH  043%=      5-min Rain = 0
KCA1 262346Z 16019KT 32/18 A2999 RMK A01 T03230182  RH  043%=      5-min Rain = 0
KCA1 262347Z 16018G25KT 32/18 A2999 RMK A01 T03220181  RH  043%=      5-min Rain = 0
KCA1 262348Z 16021G26KT 32/18 A2999 RMK A01 T03220180  RH  043%=      5-min Rain = 0
KCA1 262349Z 17016G21KT 32/18 A2999 RMK A01 T03210180  RH  043%=      5-min Rain = 0
KCA1 262350Z 17018KT 32/18 A2999 RMK A01 T03210181  RH  043%=      5-min Rain = 0
KCA1 262351Z 17017G22KT 32/18 A2999 RMK A01 T03210181  RH  043%=      5-min Rain = 0
KCA1 262352Z 17015KT 32/18 A2999 RMK A01 T03210181  RH  043%=      5-min Rain = 0
KCA1 262353Z 16012G17KT 32/19 A2999 RMK A01 T03210185  RH  044%=      5-min Rain = 0
KCA1 262354Z 15018KT 32/18 A2999 RMK A01 T03210183  RH  044%=      5-min Rain = 0
KCA1 262355Z 15018G23KT 32/18 A2999 RMK A01 T03210179  RH  043%=      5-min Rain = 0
KCA1 262356Z 17017G24KT 32/18 A2999 RMK A01 T03210181  RH  043%=      5-min Rain = 0
KCA1 262357Z 15019KT 32/18 A2999 RMK A01 T03210179  RH  043%=      5-min Rain = 0
KCA1 262358Z 16017G22KT 32/18 A2999 RMK A01 T03200179  RH  043%=      5-min Rain = 0
KCA1 262359Z 16016KT 32/18 A2999 RMK A01 T03200179  RH  043%=      5-min Rain = 0
KCA1 270000Z 16016KT 32/18 A2999 RMK A01 T03200178  RH  043%=      5-min Rain = 0
KCA1 270001Z 16016G21KT 32/18 A2999 RMK A01 T03190179  RH  043%=      5-min Rain = 0
KCA1 270002Z 16017KT 32/18 A2999 RMK A01 T03190179  RH  043%=      5-min Rain = 0
KCA1 270003Z 17019G26KT 32/18 A2999 RMK A01 T03190177  RH  043%=      5-min Rain = 0
KCA1 270004Z 17019G24KT 32/18 A2999 RMK A01 T03190178  RH  043%=      5-min Rain = 0
KCA1 270005Z 16021KT 32/18 A2999 RMK A01 T03190178  RH  043%=      5-min Rain = 0
KCA1 270006Z 16018KT 32/18 A2999 RMK A01 T03180177  RH  043%=      5-min Rain = 0
KCA1 270007Z 16019KT 32/18 A2999 RMK A01 T03180177  RH  043%=      5-min Rain = 0
KCA1 270008Z 16015KT 32/18 A2999 RMK A01 T03170178  RH  043%=      5-min Rain = 0
KCA1 270009Z 16019KT 32/18 A2999 RMK A01 T03170179  RH  044%=      5-min Rain = 0
KCA1 270010Z 16016KT 32/18 A2999 RMK A01 T03170178  RH  044%=      5-min Rain = 0
KCA1 270011Z 16017KT 32/18 A2999 RMK A01 T03170178  RH  043%=      5-min Rain = 0
KCA1 270012Z 15018KT 32/18 A2999 RMK A01 T03170178  RH  044%=      5-min Rain = 0
KCA1 270013Z 15017KT 32/18 A2999 RMK A01 T03160178  RH  044%=      5-min Rain = 0
KCA1 270014Z 15016KT 32/18 A2999 RMK A01 T03160180  RH  044%=      5-min Rain = 0
KCA1 270015Z 16015G20KT 32/18 A2999 RMK A01 T03160179  RH  044%=      5-min Rain = 0
KCA1 270016Z 16018KT 32/18 A2999 RMK A01 T03160180  RH  044%=      5-min Rain = 0
KCA1 270017Z 16017G22KT 32/18 A2999 RMK A01 T03160179  RH  044%=      5-min Rain = 0
KCA1 270018Z 16017KT 32/18 A2999 RMK A01 T03160179  RH  044%=      5-min Rain = 0
KCA1 270019Z 15017KT 32/18 A2999 RMK A01 T03150179  RH  044%=      5-min Rain = 0
KCA1 270020Z 15017KT 32/18 A2999 RMK A01 T03150178  RH  044%=      5-min Rain = 0
KCA1 270021Z 16019KT 32/18 A2999 RMK A01 T03150178  RH  044%=      5-min Rain = 0
KCA1 270022Z 16017KT 32/18 A2999 RMK A01 T03150178  RH  044%=      5-min Rain = 0
KCA1 270023Z 16016KT 31/18 A2999 RMK A01 T03140178  RH  044%=      5-min Rain = 0
KCA1 270024Z 16017G22KT 31/18 A2999 RMK A01 T03140177  RH  044%=      5-min Rain = 0
KCA1 270025Z 16018G23KT 31/18 A2999 RMK A01 T03140177  RH  044%=      5-min Rain = 0
KCA1 270026Z 16019G24KT 31/18 A2999 RMK A01 T03140178  RH  044%=      5-min Rain = 0
KCA1 270027Z 17019KT 31/18 A2999 RMK A01 T03130176  RH  044%=      5-min Rain = 0
KCA1 270028Z 17016G22KT 31/18 A2999 RMK A01 T03120176  RH  044%=      5-min Rain = 0
KCA1 270029Z 16015KT 31/18 A2999 RMK A01 T03100176  RH  045%=      5-min Rain = 0
KCA1 270030Z 17017G22KT 31/18 A2999 RMK A01 T03090176  RH  045%=      5-min Rain = 0
KCA1 270031Z 16018KT 31/18 A2999 RMK A01 T03080176  RH  045%=      5-min Rain = 0
KCA1 270032Z 16017KT 31/18 A2999 RMK A01 T03070176  RH  046%=      5-min Rain = 0
KCA1 270033Z 17016KT 31/18 A2999 RMK A01 T03060177  RH  046%=      5-min Rain = 0
KCA1 270034Z 16014KT 31/18 A2999 RMK A01 T03050177  RH  046%=      5-min Rain = 0
KCA1 270035Z 16016KT 30/18 A2999 RMK A01 T03040178  RH  047%=      5-min Rain = 0
KCA1 270036Z 17018KT 30/18 A2999 RMK A01 T03040177  RH  047%=      5-min Rain = 0
KCA1 270037Z 17014KT 30/18 A30 RMK A01 T03030178  RH  047%=      5-min Rain = 0
KCA1 270038Z 16013KT 30/18 A30 RMK A01 T03030179  RH  047%=      5-min Rain = 0
KCA1 270039Z 16013KT 30/18 A30 RMK A01 T03020179  RH  048%=      5-min Rain = 0
KCA1 270040Z 16015KT 30/18 A30 RMK A01 T03020180  RH  048%=      5-min Rain = 0
KCA1 270041Z 16015KT 30/18 A30 RMK A01 T03010179  RH  048%=      5-min Rain = 0
KCA1 270042Z 17015KT 30/18 A30 RMK A01 T03010179  RH  048%=      5-min Rain = 0
KCA1 270043Z 16013KT 30/18 A30 RMK A01 T03010179  RH  048%=      5-min Rain = 0
KCA1 270044Z 16013KT 30/18 A30 RMK A01 T03010180  RH  048%=      5-min Rain = 0
KCA1 270045Z 17014KT 30/18 A30 RMK A01 T03000180  RH  048%=      5-min Rain = 0
KCA1 270046Z 17014KT 30/18 A30 RMK A01 T03000179  RH  048%=      5-min Rain = 0
KCA1 270047Z 16012KT 30/18 A30 RMK A01 T03000179  RH  048%=      5-min Rain = 0
KCA1 270048Z 16012KT 30/18 A30 RMK A01 T02990179  RH  048%=      5-min Rain = 0
KCA1 270049Z 16013KT 30/18 A30 RMK A01 T02990179  RH  049%=      5-min Rain = 0
KCA1 270050Z 16011KT 30/18 A30 RMK A01 T02990179  RH  049%=      5-min Rain = 0
KCA1 270051Z 16012KT 30/18 A30 RMK A01 T02980179  RH  049%=      5-min Rain = 0
KCA1 270052Z 16011KT 30/18 A30 RMK A01 T02980179  RH  049%=      5-min Rain = 0
KCA1 270053Z 16012G17KT 30/18 A30 RMK A01 T02980180  RH  049%=      5-min Rain = 0
KCA1 270054Z 16011KT 30/18 A30 RMK A01 T02970180  RH  049%=      5-min Rain = 0
KCA1 270055Z 17013KT 30/18 A30 RMK A01 T02970179  RH  049%=      5-min Rain = 0
KCA1 270056Z 16012KT 30/18 A30 RMK A01 T02970179  RH  049%=      5-min Rain = 0
KCA1 270057Z 16011KT 30/18 A30 RMK A01 T02970180  RH  050%=      5-min Rain = 0
KCA1 270058Z 16013KT 30/18 A30 RMK A01 T02960180  RH  050%=      5-min Rain = 0
KCA1 270059Z 16012KT 30/18 A30 RMK A01 T02960180  RH  050%=      5-min Rain = 0
KCA1 270100Z 16013KT 30/18 A30 RMK A01 T02960180  RH  050%=      5-min Rain = 0
KCA1 270101Z 16013KT 30/18 A30 RMK A01 T02960179  RH  049%=      5-min Rain = 0
KCA1 270102Z 16011KT 30/18 A30 RMK A01 T02960179  RH  049%=      5-min Rain = 0
KCA1 270103Z 16009KT 30/18 A30 RMK A01 T02970181  RH  050%=      5-min Rain = 0
KCA1 270104Z 16012KT 30/18 A30 RMK A01 T02960181  RH  050%=      5-min Rain = 0
KCA1 270105Z 15011KT 30/18 A3001 RMK A01 T02950181  RH  050%=      5-min Rain = 0
KCA1 270106Z 16009KT 30/18 A3001 RMK A01 T02950181  RH  050%=      5-min Rain = 0
KCA1 270107Z 15009KT 29/18 A3001 RMK A01 T02940182  RH  051%=      5-min Rain = 0
KCA1 270108Z 16009KT 29/18 A3001 RMK A01 T02930182  RH  051%=      5-min Rain = 0
KCA1 270109Z 15009KT 29/18 A3001 RMK A01 T02920182  RH  051%=      5-min Rain = 0
KCA1 270110Z 15010KT 29/18 A3001 RMK A01 T02920182  RH  051%=      5-min Rain = 0
KCA1 270111Z 15009KT 29/18 A3001 RMK A01 T02920181  RH  051%=      5-min Rain = 0
KCA1 270112Z 15009KT 29/18 A3001 RMK A01 T02920182  RH  052%=      5-min Rain = 0
KCA1 270113Z 14010KT 29/18 A3002 RMK A01 T02920181  RH  051%=      5-min Rain = 0
KCA1 270114Z 15009KT 29/18 A3002 RMK A01 T02910181  RH  051%=      5-min Rain = 0
KCA1 270115Z 15012KT 29/18 A3002 RMK A01 T02910181  RH  051%=      5-min Rain = 0
KCA1 270116Z 15011KT 29/18 A3002 RMK A01 T02920181  RH  051%=      5-min Rain = 0
KCA1 270117Z 15011KT 29/18 A3002 RMK A01 T02920181  RH  051%=      5-min Rain = 0
KCA1 270118Z 15010KT 29/18 A3002 RMK A01 T02920182  RH  051%=      5-min Rain = 0
KCA1 270119Z 15009KT 29/18 A3002 RMK A01 T02920183  RH  052%=      5-min Rain = 0
KCA1 270120Z 14011KT 29/18 A3002 RMK A01 T02910182  RH  052%=      5-min Rain = 0
KCA1 270121Z 14010KT 29/18 A3002 RMK A01 T02900182  RH  052%=      5-min Rain = 0
KCA1 270122Z 14011KT 29/18 A3002 RMK A01 T02900182  RH  052%=      5-min Rain = 0
KCA1 270123Z 14010KT 29/18 A3002 RMK A01 T02900182  RH  052%=      5-min Rain = 0
KCA1 270124Z 14009KT 29/18 A3002 RMK A01 T02900182  RH  052%=      5-min Rain = 0
KCA1 270125Z 15010KT 29/18 A3003 RMK A01 T02900182  RH  052%=      5-min Rain = 0
KCA1 270126Z 14010KT 29/18 A3003 RMK A01 T02900182  RH  052%=      5-min Rain = 0
KCA1 270127Z 15009KT 29/18 A3003 RMK A01 T02890182  RH  052%=      5-min Rain = 0
KCA1 270128Z 14010KT 29/18 A3003 RMK A01 T02890183  RH  053%=      5-min Rain = 0
KCA1 270129Z 14009KT 29/18 A3003 RMK A01 T02880182  RH  053%=      5-min Rain = 0
KCA1 270130Z 15009KT 29/18 A3003 RMK A01 T02890183  RH  053%=      5-min Rain = 0
KCA1 270131Z 15010KT 29/18 A3003 RMK A01 T02880183  RH  053%=      5-min Rain = 0
KCA1 270132Z 14009KT 29/18 A3003 RMK A01 T02880183  RH  053%=      5-min Rain = 0
KCA1 270133Z 14010KT 29/18 A3003 RMK A01 T02870183  RH  053%=      5-min Rain = 0
KCA1 270134Z 15011KT 29/18 A3003 RMK A01 T02870182  RH  053%=      5-min Rain = 0
KCA1 270135Z 14009KT 29/18 A3003 RMK A01 T02880182  RH  053%=      5-min Rain = 0
KCA1 270136Z 15009KT 29/18 A3003 RMK A01 T02870183  RH  053%=      5-min Rain = 0
KCA1 270137Z 14010KT 29/18 A3004 RMK A01 T02870182  RH  053%=      5-min Rain = 0
KCA1 270138Z 14008KT 29/18 A3004 RMK A01 T02860182  RH  053%=      5-min Rain = 0
KCA1 270139Z 14009KT 29/18 A3004 RMK A01 T02860182  RH  053%=      5-min Rain = 0
KCA1 270140Z 13010KT 29/18 A3004 RMK A01 T02860182  RH  053%=      5-min Rain = 0
KCA1 270141Z 13010KT 29/18 A3004 RMK A01 T02860182  RH  053%=      5-min Rain = 0
KCA1 270142Z 14009KT 29/18 A3004 RMK A01 T02850182  RH  053%=      5-min Rain = 0
KCA1 270143Z 14010KT 29/18 A3004 RMK A01 T02850182  RH  053%=      5-min Rain = 0
KCA1 270144Z 14008KT 29/18 A3004 RMK A01 T02850182  RH  054%=      5-min Rain = 0
KCA1 270145Z 14009KT 28/18 A3004 RMK A01 T02840181  RH  054%=      5-min Rain = 0
KCA1 270146Z 14009KT 28/18 A3004 RMK A01 T02840181  RH  054%=      5-min Rain = 0
KCA1 270147Z 14010KT 28/18 A3004 RMK A01 T02830181  RH  054%=      5-min Rain = 0
KCA1 270148Z 14010KT 28/18 A3004 RMK A01 T02830181  RH  054%=      5-min Rain = 0
KCA1 270149Z 14009KT 28/18 A3004 RMK A01 T02830181  RH  054%=      5-min Rain = 0
KCA1 270150Z 14009KT 28/18 A3004 RMK A01 T02830181  RH  054%=      5-min Rain = 0
KCA1 270151Z 13008KT 28/18 A3004 RMK A01 T02830181  RH  054%=      5-min Rain = 0
KCA1 270152Z 14009KT 28/18 A3004 RMK A01 T02820181  RH  054%=      5-min Rain = 0
KCA1 270153Z 13010KT 28/18 A3004 RMK A01 T02820181  RH  054%=      5-min Rain = 0
KCA1 270154Z 14011KT 28/18 A3004 RMK A01 T02820180  RH  054%=      5-min Rain = 0
KCA1 270155Z 15009KT 28/18 A3005 RMK A01 T02820180  RH  054%=      5-min Rain = 0
KCA1 270156Z 14009KT 28/18 A3005 RMK A01 T02820181  RH  054%=      5-min Rain = 0
KCA1 270157Z 14009KT 28/18 A3005 RMK A01 T02810181  RH  054%=      5-min Rain = 0
KCA1 270158Z 14010KT 28/18 A3005 RMK A01 T02810181  RH  054%=      5-min Rain = 0
KCA1 270159Z 15010KT 28/18 A3005 RMK A01 T02810181  RH  055%=      5-min Rain = 0
KCA1 270200Z 14010KT 28/18 A3005 RMK A01 T02800180  RH  055%=      5-min Rain = 0
KCA1 270201Z 14010KT 28/18 A3005 RMK A01 T02800180  RH  055%=      5-min Rain = 0
KCA1 270202Z 14010KT 28/18 A3005 RMK A01 T02800180  RH  054%=      5-min Rain = 0
KCA1 270203Z 14010KT 28/18 A3005 RMK A01 T02810180  RH  054%=      5-min Rain = 0
KCA1 270204Z 15011KT 28/18 A3005 RMK A01 T02800180  RH  054%=      5-min Rain = 0
KCA1 270205Z 15009KT 28/18 A3005 RMK A01 T02800181  RH  055%=      5-min Rain = 0
KCA1 270206Z 15009KT 28/18 A3005 RMK A01 T02800181  RH  055%=      5-min Rain = 0
KCA1 270207Z 15010KT 28/18 A3005 RMK A01 T02780181  RH  056%=      5-min Rain = 0
KCA1 270208Z 15009KT 28/18 A3005 RMK A01 T02770180  RH  056%=      5-min Rain = 0
KCA1 270209Z 15009KT 28/18 A3005 RMK A01 T02770181  RH  056%=      5-min Rain = 0
KCA1 270210Z 15008KT 28/18 A3005 RMK A01 T02760181  RH  056%=      5-min Rain = 0
KCA1 270211Z 15009KT 28/18 A3005 RMK A01 T02750181  RH  056%=      5-min Rain = 0
KCA1 270212Z 15009KT 28/18 A3005 RMK A01 T02750181  RH  057%=      5-min Rain = 0
KCA1 270213Z 15008KT 28/18 A3005 RMK A01 T02750181  RH  057%=      5-min Rain = 0
KCA1 270214Z 15009KT 27/18 A3005 RMK A01 T02740181  RH  057%=      5-min Rain = 0
KCA1 270215Z 15011KT 27/18 A3005 RMK A01 T02730180  RH  057%=      5-min Rain = 0
KCA1 270216Z 15009KT 27/18 A3005 RMK A01 T02730180  RH  057%=      5-min Rain = 0
KCA1 270217Z 15009KT 27/18 A3005 RMK A01 T02740180  RH  057%=      5-min Rain = 0
KCA1 270218Z 15009KT 27/18 A3005 RMK A01 T02730181  RH  057%=      5-min Rain = 0
KCA1 270219Z 15010KT 27/18 A3005 RMK A01 T02730181  RH  057%=      5-min Rain = 0
KCA1 270220Z 15009KT 27/18 A3005 RMK A01 T02720181  RH  057%=      5-min Rain = 0
KCA1 270221Z 15008KT 27/18 A3005 RMK A01 T02720181  RH  058%=      5-min Rain = 0
KCA1 270222Z 15008KT 27/18 A3005 RMK A01 T02710181  RH  058%=      5-min Rain = 0
KCA1 270223Z 14010KT 27/18 A3005 RMK A01 T02700181  RH  058%=      5-min Rain = 0
KCA1 270224Z 15011KT 27/18 A3005 RMK A01 T02700180  RH  058%=      5-min Rain = 0
KCA1 270225Z 15010KT 27/18 A3005 RMK A01 T02700180  RH  058%=      5-min Rain = 0
KCA1 270226Z 15009KT 27/18 A3005 RMK A01 T02700181  RH  058%=      5-min Rain = 0
KCA1 270227Z 14010KT 27/18 A3005 RMK A01 T02700181  RH  058%=      5-min Rain = 0
KCA1 270228Z 15010KT 27/18 A3005 RMK A01 T02700181  RH  058%=      5-min Rain = 0
KCA1 270229Z 15011KT 27/18 A3005 RMK A01 T02700181  RH  058%=      5-min Rain = 0
KCA1 270230Z 14011KT 27/18 A3004 RMK A01 T02700181  RH  058%=      5-min Rain = 0
KCA1 270231Z 15010KT 27/18 A3004 RMK A01 T02700181  RH  058%=      5-min Rain = 0
KCA1 270232Z 15010KT 27/18 A3004 RMK A01 T02700181  RH  058%=      5-min Rain = 0
KCA1 270233Z 15010KT 27/18 A3005 RMK A01 T02700181  RH  058%=      5-min Rain = 0
KCA1 270234Z 15010KT 27/18 A3004 RMK A01 T02700181  RH  058%=      5-min Rain = 0
KCA1 270235Z 15010KT 27/18 A3004 RMK A01 T02690181  RH  059%=      5-min Rain = 0
KCA1 270236Z 15011KT 27/18 A3004 RMK A01 T02690181  RH  059%=      5-min Rain = 0
KCA1 270237Z 15009KT 27/18 A3004 RMK A01 T02690181  RH  059%=      5-min Rain = 0
KCA1 270238Z 14010KT 27/18 A3004 RMK A01 T02680181  RH  059%=      5-min Rain = 0
KCA1 270239Z 14010KT 27/18 A3004 RMK A01 T02680181  RH  059%=      5-min Rain = 0
KCA1 270240Z 14011KT 27/18 A3004 RMK A01 T02680182  RH  059%=      5-min Rain = 0
KCA1 270241Z 14011KT 27/18 A3004 RMK A01 T02670181  RH  059%=      5-min Rain = 0
KCA1 270242Z 14011KT 27/18 A3004 RMK A01 T02670182  RH  059%=      5-min Rain = 0
KCA1 270243Z 14011KT 27/18 A3004 RMK A01 T02670181  RH  059%=      5-min Rain = 0
KCA1 270244Z 14011KT 27/18 A3004 RMK A01 T02670182  RH  060%=      5-min Rain = 0
KCA1 270245Z 14012KT 27/18 A3004 RMK A01 T02660182  RH  060%=      5-min Rain = 0
KCA1 270246Z 14011KT 27/18 A3004 RMK A01 T02660182  RH  060%=      5-min Rain = 0
KCA1 270247Z 14012KT 27/18 A3004 RMK A01 T02660182  RH  060%=      5-min Rain = 0
KCA1 270248Z 14011KT 27/18 A3004 RMK A01 T02660182  RH  060%=      5-min Rain = 0
KCA1 270249Z 14012KT 27/18 A3004 RMK A01 T02660182  RH  060%=      5-min Rain = 0
KCA1 270250Z 14010KT 27/18 A3004 RMK A01 T02650182  RH  060%=      5-min Rain = 0
KCA1 270251Z 14011KT 27/18 A3004 RMK A01 T02650183  RH  061%=      5-min Rain = 0
KCA1 270252Z 14012KT 26/18 A3004 RMK A01 T02640182  RH  061%=      5-min Rain = 0
KCA1 270253Z 14011KT 26/18 A3004 RMK A01 T02640182  RH  061%=      5-min Rain = 0
KCA1 270254Z 14012KT 26/18 A3004 RMK A01 T02630182  RH  061%=      5-min Rain = 0
KCA1 270255Z 14012KT 26/18 A3004 RMK A01 T02630182  RH  061%=      5-min Rain = 0
KCA1 270256Z 14011KT 26/18 A3004 RMK A01 T02630183  RH  061%=      5-min Rain = 0
KCA1 270257Z 14011KT 26/18 A3004 RMK A01 T02620183  RH  062%=      5-min Rain = 0
KCA1 270258Z 14011KT 26/18 A3004 RMK A01 T02620183  RH  062%=      5-min Rain = 0
KCA1 270259Z 14012KT 26/18 A3004 RMK A01 T02610183  RH  062%=      5-min Rain = 0
KCA1 270300Z 14011KT 26/18 A3004 RMK A01 T02610183  RH  062%=      5-min Rain = 0
KCA1 270301Z 14010KT 26/18 A3004 RMK A01 T02610183  RH  062%=      5-min Rain = 0
KCA1 270302Z 14013KT 26/18 A3004 RMK A01 T02600183  RH  062%=      5-min Rain = 0
KCA1 270303Z 13013KT 26/18 A3004 RMK A01 T02600183  RH  062%=      5-min Rain = 0
KCA1 270304Z 13014KT 26/18 A3004 RMK A01 T02600183  RH  062%=      5-min Rain = 0
KCA1 270305Z 14012KT 26/18 A3004 RMK A01 T02610183  RH  062%=      5-min Rain = 0
KCA1 270306Z 14012KT 26/18 A3004 RMK A01 T02610183  RH  062%=      5-min Rain = 0
KCA1 270307Z 14012KT 26/18 A3004 RMK A01 T02610183  RH  062%=      5-min Rain = 0
KCA1 270308Z 14012KT 26/18 A3004 RMK A01 T02610184  RH  063%=      5-min Rain = 0
KCA1 270309Z 14015KT 26/18 A3004 RMK A01 T02600183  RH  063%=      5-min Rain = 0
KCA1 270310Z 14013KT 26/18 A3004 RMK A01 T02600183  RH  063%=      5-min Rain = 0
KCA1 270311Z 14014KT 26/18 A3003 RMK A01 T02600184  RH  063%=      5-min Rain = 0
KCA1 270312Z 14014KT 26/18 A3003 RMK A01 T02600183  RH  063%=      5-min Rain = 0
KCA1 270313Z 14013KT 26/18 A3004 RMK A01 T02600183  RH  063%=      5-min Rain = 0
KCA1 270314Z 14013KT 26/18 A3004 RMK A01 T02600184  RH  063%=      5-min Rain = 0
KCA1 270315Z 14014KT 26/18 A3004 RMK A01 T02600184  RH  063%=      5-min Rain = 0
KCA1 270316Z 14015KT 26/18 A3004 RMK A01 T02590184  RH  063%=      5-min Rain = 0
KCA1 270317Z 14013KT 26/18 A3004 RMK A01 T02600184  RH  063%=      5-min Rain = 0
KCA1 270318Z 14015KT 26/18 A3004 RMK A01 T02600184  RH  063%=      5-min Rain = 0
KCA1 270319Z 14012KT 26/18 A3004 RMK A01 T02590184  RH  063%=      5-min Rain = 0
KCA1 270320Z 14015KT 26/18 A3004 RMK A01 T02590184  RH  063%=      5-min Rain = 0
KCA1 270321Z 14012KT 26/18 A3004 RMK A01 T02600184  RH  063%=      5-min Rain = 0
KCA1 270322Z 14016KT 26/18 A3004 RMK A01 T02600184  RH  063%=      5-min Rain = 0
KCA1 270323Z 14014KT 26/18 A3004 RMK A01 T02590184  RH  063%=      5-min Rain = 0
KCA1 270324Z 14013KT 26/18 A3004 RMK A01 T02600184  RH  063%=      5-min Rain = 0
KCA1 270325Z 14012KT 26/18 A3004 RMK A01 T02590184  RH  063%=      5-min Rain = 0
KCA1 270326Z 14013KT 26/18 A3004 RMK A01 T02590184  RH  063%=      5-min Rain = 0
KCA1 270327Z 14015KT 26/18 A3004 RMK A01 T02590184  RH  063%=      5-min Rain = 0
KCA1 270328Z 14015KT 26/18 A3005 RMK A01 T02580183  RH  063%=      5-min Rain = 0
KCA1 270329Z 14013KT 26/18 A3005 RMK A01 T02590183  RH  063%=      5-min Rain = 0
KCA1 270330Z 14013KT 26/18 A3005 RMK A01 T02590183  RH  063%=      5-min Rain = 0
KCA1 270331Z 14015KT 26/18 A3005 RMK A01 T02590184  RH  063%=      5-min Rain = 0
KCA1 270332Z 14014KT 26/18 A3005 RMK A01 T02590183  RH  063%=      5-min Rain = 0
KCA1 270333Z 14014KT 26/18 A3005 RMK A01 T02590184  RH  063%=      5-min Rain = 0
KCA1 270334Z 14015KT 26/18 A3005 RMK A01 T02590183  RH  063%=      5-min Rain = 0
KCA1 270335Z 14014KT 26/18 A3005 RMK A01 T02590183  RH  063%=      5-min Rain = 0
KCA1 270336Z 14012G17KT 26/18 A3005 RMK A01 T02590183  RH  063%=      5-min Rain = 0
KCA1 270337Z 13012KT 26/18 A3005 RMK A01 T02580183  RH  063%=      5-min Rain = 0
KCA1 270338Z 13014KT 26/18 A3005 RMK A01 T02580183  RH  063%=      5-min Rain = 0
KCA1 270339Z 13013KT 26/18 A3005 RMK A01 T02580183  RH  063%=      5-min Rain = 0
KCA1 270340Z 13012KT 26/18 A3005 RMK A01 T02580183  RH  063%=      5-min Rain = 0
KCA1 270341Z 13011KT 26/18 A3005 RMK A01 T02570183  RH  064%=      5-min Rain = 0
KCA1 270342Z 12012KT 26/18 A3005 RMK A01 T02570183  RH  064%=      5-min Rain = 0
KCA1 270343Z 12011KT 26/18 A3005 RMK A01 T02560183  RH  064%=      5-min Rain = 0
KCA1 270344Z 13011KT 26/18 A3005 RMK A01 T02550184  RH  065%=      5-min Rain = 0
KCA1 270345Z 12012KT 25/18 A3005 RMK A01 T02540184  RH  065%=      5-min Rain = 0
KCA1 270346Z 12011KT 25/18 A3005 RMK A01 T02540184  RH  065%=      5-min Rain = 0
KCA1 270347Z 12012KT 25/19 A3005 RMK A01 T02530185  RH  066%=      5-min Rain = 0
KCA1 270348Z 12012KT 25/19 A3005 RMK A01 T02520185  RH  066%=      5-min Rain = 0
KCA1 270349Z 12012KT 25/19 A3005 RMK A01 T02510185  RH  067%=      5-min Rain = 0
KCA1 270350Z 12012KT 25/19 A3005 RMK A01 T02500185  RH  067%=      5-min Rain = 0
KCA1 270351Z 12011KT 25/19 A3005 RMK A01 T02490185  RH  067%=      5-min Rain = 0
KCA1 270352Z 12014KT 25/19 A3005 RMK A01 T02490186  RH  068%=      5-min Rain = 0
KCA1 270353Z 12012KT 25/19 A3005 RMK A01 T02490186  RH  068%=      5-min Rain = 0
KCA1 270354Z 12012KT 25/19 A3005 RMK A01 T02490186  RH  068%=      5-min Rain = 0
KCA1 270355Z 12011KT 25/19 A3005 RMK A01 T02480186  RH  068%=      5-min Rain = 0
KCA1 270356Z 12011KT 25/19 A3005 RMK A01 T02480186  RH  068%=      5-min Rain = 0
KCA1 270357Z 13012KT 25/19 A3005 RMK A01 T02480187  RH  069%=      5-min Rain = 0
KCA1 270358Z 13011KT 25/19 A3005 RMK A01 T02480187  RH  069%=      5-min Rain = 0
KCA1 270359Z 13012KT 25/19 A3005 RMK A01 T02470187  RH  069%=      5-min Rain = 0
KCA1 270400Z 13012KT 25/19 A3005 RMK A01 T02480186  RH  068%=      5-min Rain = 0
KCA1 270401Z 13009KT 25/19 A3005 RMK A01 T02480185  RH  068%=      5-min Rain = 0
KCA1 270402Z 13010KT 25/19 A3005 RMK A01 T02480185  RH  068%=      5-min Rain = 0
KCA1 270403Z 14011G16KT 25/19 A3005 RMK A01 T02480185  RH  068%=      5-min Rain = 0
KCA1 270404Z 15012G17KT 25/18 A3005 RMK A01 T02490184  RH  067%=      5-min Rain = 0
KCA1 270405Z 14015KT 25/18 A3005 RMK A01 T02500183  RH  066%=      5-min Rain = 0
KCA1 270406Z 14014KT 25/18 A3005 RMK A01 T02520182  RH  065%=      5-min Rain = 0
KCA1 270407Z 15011KT 25/18 A3005 RMK A01 T02540183  RH  065%=      5-min Rain = 0
KCA1 270408Z 14010KT 26/18 A3005 RMK A01 T02550183  RH  064%=      5-min Rain = 0
KCA1 270409Z 15012KT 26/18 A3005 RMK A01 T02550183  RH  064%=      5-min Rain = 0
KCA1 270410Z 15011KT 26/18 A3005 RMK A01 T02550183  RH  064%=      5-min Rain = 0
KCA1 270411Z 16014KT 26/18 A3006 RMK A01 T02550182  RH  064%=      5-min Rain = 0
KCA1 270412Z 16010KT 26/18 A3006 RMK A01 T02550182  RH  064%=      5-min Rain = 0
KCA1 270413Z 15014KT 26/18 A3006 RMK A01 T02560183  RH  064%=      5-min Rain = 0
KCA1 270414Z 16011KT 26/18 A3006 RMK A01 T02560182  RH  064%=      5-min Rain = 0
KCA1 270415Z 16012KT 26/18 A3006 RMK A01 T02560183  RH  064%=      5-min Rain = 0
KCA1 270416Z 15012KT 26/18 A3006 RMK A01 T02560183  RH  064%=      5-min Rain = 0
KCA1 270417Z 16012G18KT 26/18 A3006 RMK A01 T02550183  RH  064%=      5-min Rain = 0
KCA1 270418Z 15013KT 26/18 A3006 RMK A01 T02550182  RH  064%=      5-min Rain = 0
KCA1 270419Z 15014KT 26/18 A3006 RMK A01 T02550182  RH  064%=      5-min Rain = 0
KCA1 270420Z 16016KT 26/18 A3006 RMK A01 T02560183  RH  064%=      5-min Rain = 0
KCA1 270421Z 16014KT 26/18 A3006 RMK A01 T02550182  RH  064%=      5-min Rain = 0
KCA1 270422Z 15016KT 26/18 A3006 RMK A01 T02550182  RH  064%=      5-min Rain = 0
KCA1 270423Z 16016KT 26/18 A3006 RMK A01 T02560182  RH  064%=      5-min Rain = 0
KCA1 270424Z 16015KT 26/18 A3006 RMK A01 T02560182  RH  064%=      5-min Rain = 0
KCA1 270425Z 16017G22KT 26/18 A3006 RMK A01 T02560182  RH  064%=      5-min Rain = 0
KCA1 270426Z 16015KT 26/18 A3006 RMK A01 T02560182  RH  064%=      5-min Rain = 0
KCA1 270427Z 16016G21KT 26/18 A3006 RMK A01 T02560182  RH  064%=      5-min Rain = 0
KCA1 270428Z 16018KT 26/18 A3006 RMK A01 T02550182  RH  064%=      5-min Rain = 0
KCA1 270429Z 16015KT 26/18 A3006 RMK A01 T02560182  RH  064%=      5-min Rain = 0
KCA1 270430Z 16015KT 26/18 A3006 RMK A01 T02560182  RH  064%=      5-min Rain = 0
KCA1 270431Z 16019KT 26/18 A3006 RMK A01 T02550182  RH  064%=      5-min Rain = 0
KCA1 270432Z 15019G24KT 26/18 A3006 RMK A01 T02550182  RH  064%=      5-min Rain = 0
KCA1 270433Z 16020KT 26/18 A3006 RMK A01 T02550182  RH  064%=      5-min Rain = 0
KCA1 270434Z 16016KT 26/18 A3006 RMK A01 T02550182  RH  064%=      5-min Rain = 0
KCA1 270435Z 16018KT 26/18 A3006 RMK A01 T02560182  RH  064%=      5-min Rain = 0
KCA1 270436Z 16018G24KT 26/18 A3005 RMK A01 T02550182  RH  064%=      5-min Rain = 0
KCA1 270437Z 16018G25KT 26/18 A3005 RMK A01 T02550182  RH  064%=      5-min Rain = 0
KCA1 270438Z 15016G21KT 26/18 A3005 RMK A01 T02550182  RH  064%=      5-min Rain = 0
KCA1 270439Z 16017KT 25/18 A3005 RMK A01 T02540182  RH  064%=      5-min Rain = 0
KCA1 270440Z 16015G21KT 25/18 A3005 RMK A01 T02540182  RH  064%=      5-min Rain = 0
KCA1 270441Z 16018KT 25/18 A3005 RMK A01 T02530182  RH  065%=      5-min Rain = 0
KCA1 270442Z 16017KT 25/18 A3005 RMK A01 T02530182  RH  065%=      5-min Rain = 0
KCA1 270443Z 16017KT 25/18 A3006 RMK A01 T02530182  RH  065%=      5-min Rain = 0
KCA1 270444Z 16017KT 25/18 A3005 RMK A01 T02530182  RH  065%=      5-min Rain = 0
KCA1 270445Z 16015KT 25/18 A3006 RMK A01 T02530181  RH  065%=      5-min Rain = 0
KCA1 270446Z 16019KT 25/18 A3006 RMK A01 T02530182  RH  065%=      5-min Rain = 0
KCA1 270447Z 16018G23KT 25/18 A3006 RMK A01 T02530181  RH  065%=      5-min Rain = 0
KCA1 270448Z 16018KT 25/18 A3006 RMK A01 T02530181  RH  065%=      5-min Rain = 0
KCA1 270449Z 16017G23KT 25/18 A3006 RMK A01 T02530181  RH  065%=      5-min Rain = 0
KCA1 270450Z 16015KT 25/18 A3006 RMK A01 T02530182  RH  065%=      5-min Rain = 0
KCA1 270451Z 17018G24KT 25/18 A3006 RMK A01 T02530182  RH  065%=      5-min Rain = 0
KCA1 270452Z 16015KT 25/18 A3006 RMK A01 T02530181  RH  065%=      5-min Rain = 0
KCA1 270453Z 16013KT 25/18 A3006 RMK A01 T02530182  RH  065%=      5-min Rain = 0
KCA1 270454Z 16017KT 25/18 A3006 RMK A01 T02530182  RH  065%=      5-min Rain = 0
KCA1 270455Z 17016G21KT 25/18 A3006 RMK A01 T02530182  RH  065%=      5-min Rain = 0
KCA1 270456Z 17015G20KT 25/18 A3006 RMK A01 T02520182  RH  065%=      5-min Rain = 0
KCA1 270457Z 17016KT 25/18 A3006 RMK A01 T02520182  RH  065%=      5-min Rain = 0
KCA1 270458Z 17020KT 25/18 A3006 RMK A01 T02530182  RH  065%=      5-min Rain = 0
KCA1 270459Z 17015G20KT 25/18 A3006 RMK A01 T02530182  RH  065%=      5-min Rain = 0

Page generated in 0.0778 seconds.